Time,TemperatureF,DewpointF,PressureIn,WindDirection,WindDirectionDegrees,WindSpeedMPH,WindSpeedGustMPH,Humidity,HourlyPrecipIn,Conditions,Clouds,dailyrainin,SoftwareType,DateUTC
2013-11-14 00:00:00,41.4,16.4,30.42,North,0,3.1,3.1,36,0.00,CLR,,0.00,WeatherDisplay:10.37,2013-11-14 05:00:00,
2013-11-14 00:01:00,41.4,16.4,30.42,NNW,338,2.6,2.9,36,0.00,CLR,,0.00,WeatherDisplay:10.37,2013-11-14 05:01:00,
2013-11-14 00:02:00,41.4,16.4,30.42,NNE,22,3.6,3.6,36,0.00,CLR,,0.00,WeatherDisplay:10.37,2013-11-14 05:02:00,
2013-11-14 00:06:00,41.2,16.2,30.42,NNE,22,2.6,3.3,36,0.00,CLR,,0.00,WeatherDisplay:10.37,2013-11-14 05:06:00,
2013-11-14 00:07:00,41.2,16.2,30.42,NNW,338,4.6,4.6,36,0.00,CLR,,0.00,WeatherDisplay:10.37,2013-11-14 05:07:00,
2013-11-14 00:11:00,41.2,16.8,30.42,NNW,338,5.8,5.8,37,0.00,CLR,,0.00,WeatherDisplay:10.37,2013-11-14 05:11:00,
2013-11-14 00:12:00,41.2,16.8,30.42,NNE,22,3.5,4.3,37,0.00,CLR,,0.00,WeatherDisplay:10.37,2013-11-14 05:12:00,
2013-11-14 00:13:00,41.2,16.8,30.42,NW,315,4.6,4.6,37,0.00,CLR,,0.00,WeatherDisplay:10.37,2013-11-14 05:13:00,
2013-11-14 00:16:00,41.2,17.5,30.42,NW,315,3.8,3.8,38,0.00,CLR,,0.00,WeatherDisplay:10.37,2013-11-14 05:16:00,
2013-11-14 00:17:00,41.2,17.5,30.42,NW,315,3.1,3.1,38,0.00,CLR,,0.00,WeatherDisplay:10.37,2013-11-14 05:17:00,
2013-11-14 00:18:00,41.2,17.5,30.42,NNW,338,3.6,3.6,38,0.00,CLR,,0.00,WeatherDisplay:10.37,2013-11-14 05:18:00,
2013-11-14 00:21:00,41.2,17.5,30.42,NNW,338,4.6,4.6,38,0.00,CLR,,0.00,WeatherDisplay:10.37,2013-11-14 05:21:00,
2013-11-14 00:22:00,41.2,17.5,30.42,North,0,4.6,4.6,38,0.00,CLR,,0.00,WeatherDisplay:10.37,2013-11-14 05:22:00,
2013-11-14 00:23:00,41.2,17.5,30.42,North,0,4.9,4.9,38,0.00,CLR,,0.00,WeatherDisplay:10.37,2013-11-14 05:23:00,
2013-11-14 00:27:00,41.2,17.5,30.42,NNW,338,6.0,6.0,38,0.00,CLR,,0.00,WeatherDisplay:10.37,2013-11-14 05:27:00,
2013-11-14 00:28:00,41.2,17.5,30.42,NNW,338,3.5,3.6,38,0.00,CLR,,0.00,WeatherDisplay:10.37,2013-11-14 05:28:00,
2013-11-14 00:30:00,41.2,17.5,30.39,NNW,338,4.6,4.6,38,0.00,CLR,,0.00,WeatherDisplay:10.37,2013-11-14 05:30:00,
2013-11-14 00:32:00,41.2,17.5,30.39,NW,315,4.3,4.3,38,0.00,CLR,,0.00,WeatherDisplay:10.37,2013-11-14 05:32:00,
2013-11-14 00:33:00,41.2,17.5,30.39,NNW,338,3.5,3.5,38,0.00,CLR,,0.00,WeatherDisplay:10.37,2013-11-14 05:33:00,
2013-11-14 00:35:00,41.2,17.5,30.39,NW,315,4.0,4.0,38,0.00,CLR,,0.00,WeatherDisplay:10.37,2013-11-14 05:35:00,
2013-11-14 00:37:00,41.2,18.1,30.39,NNW,338,4.0,4.3,39,0.00,CLR,,0.00,WeatherDisplay:10.37,2013-11-14 05:37:00,
2013-11-14 00:38:00,41.2,18.1,30.39,NNW,338,3.5,4.3,39,0.00,CLR,,0.00,WeatherDisplay:10.37,2013-11-14 05:38:00,
2013-11-14 00:39:00,41.2,18.1,30.39,NNW,338,3.8,3.8,39,0.00,CLR,,0.00,WeatherDisplay:10.37,2013-11-14 05:39:00,
2013-11-14 00:41:00,41.2,18.1,30.39,NNW,338,3.5,3.8,39,0.00,CLR,,0.00,WeatherDisplay:10.37,2013-11-14 05:41:00,
2013-11-14 00:42:00,41.2,18.1,30.39,NNW,338,4.6,4.6,39,0.00,CLR,,0.00,WeatherDisplay:10.37,2013-11-14 05:42:00,
2013-11-14 00:43:00,41.0,17.9,30.39,WNW,292,3.1,3.1,39,0.00,CLR,,0.00,WeatherDisplay:10.37,2013-11-14 05:43:00,
2013-11-14 00:44:00,41.0,17.9,30.39,NNE,22,3.1,3.1,39,0.00,CLR,,0.00,WeatherDisplay:10.37,2013-11-14 05:44:00,
2013-11-14 00:46:00,41.0,17.9,30.39,NNW,338,4.6,4.6,39,0.00,CLR,,0.00,WeatherDisplay:10.37,2013-11-14 05:46:00,
2013-11-14 00:47:00,41.0,17.9,30.39,NE,45,2.6,2.9,39,0.00,CLR,,0.00,WeatherDisplay:10.37,2013-11-14 05:47:00,
2013-11-14 00:48:00,41.0,17.9,30.39,North,0,4.6,4.6,39,0.00,CLR,,0.00,WeatherDisplay:10.37,2013-11-14 05:48:00,
2013-11-14 00:49:00,41.0,17.9,30.39,North,0,4.6,4.6,39,0.00,CLR,,0.00,WeatherDisplay:10.37,2013-11-14 05:49:00,
2013-11-14 00:52:00,40.8,17.7,30.39,NW,315,2.3,2.3,39,0.00,CLR,,0.00,WeatherDisplay:10.37,2013-11-14 05:52:00,
2013-11-14 00:53:00,40.8,17.7,30.39,North,0,4.6,4.6,39,0.00,CLR,,0.00,WeatherDisplay:10.37,2013-11-14 05:53:00,
2013-11-14 00:54:00,40.8,17.7,30.39,North,0,3.6,3.6,39,0.00,CLR,,0.00,WeatherDisplay:10.37,2013-11-14 05:54:00,
2013-11-14 00:57:00,40.8,18.3,30.39,North,0,2.6,2.6,40,0.00,CLR,,0.00,WeatherDisplay:10.37,2013-11-14 05:57:00,
2013-11-14 00:58:00,40.8,18.3,30.39,NNW,338,4.6,4.6,40,0.00,CLR,,0.00,WeatherDisplay:10.37,2013-11-14 05:58:00,
2013-11-14 00:59:00,40.8,18.3,30.39,NNW,338,3.5,3.6,40,0.00,CLR,,0.00,WeatherDisplay:10.37,2013-11-14 05:59:00,
2013-11-14 01:00:00,40.8,18.3,30.39,NNW,338,5.8,5.8,40,0.00,CLR,,0.00,WeatherDisplay:10.37,2013-11-14 06:00:00,
2013-11-14 01:02:00,40.8,18.3,30.39,North,0,3.5,4.0,40,0.00,CLR,,0.00,WeatherDisplay:10.37,2013-11-14 06:02:00,
2013-11-14 01:03:00,40.8,18.3,30.39,North,0,5.6,5.6,40,0.00,CLR,,0.00,WeatherDisplay:10.37,2013-11-14 06:03:00,
2013-11-14 01:04:00,40.8,18.3,30.39,North,0,3.1,3.3,40,0.00,CLR,,0.00,WeatherDisplay:10.37,2013-11-14 06:04:00,
2013-11-14 01:05:00,40.8,18.3,30.39,NW,315,2.6,2.6,40,0.00,CLR,,0.00,WeatherDisplay:10.37,2013-11-14 06:05:00,
2013-11-14 01:08:00,40.6,18.2,30.39,North,0,4.9,4.9,40,0.00,CLR,,0.00,WeatherDisplay:10.37,2013-11-14 06:08:00,
2013-11-14 01:09:00,40.6,18.2,30.39,NNW,338,4.6,4.6,40,0.00,CLR,,0.00,WeatherDisplay:10.37,2013-11-14 06:09:00,
2013-11-14 01:11:00,40.8,18.9,30.39,North,0,5.4,5.4,41,0.00,CLR,,0.00,WeatherDisplay:10.37,2013-11-14 06:11:00,
2013-11-14 01:13:00,40.8,18.9,30.39,NNW,338,2.3,2.6,41,0.00,CLR,,0.00,WeatherDisplay:10.37,2013-11-14 06:13:00,
2013-11-14 01:14:00,40.8,18.9,30.39,NNW,338,2.3,2.6,41,0.00,CLR,,0.00,WeatherDisplay:10.37,2013-11-14 06:14:00,
2013-11-14 01:16:00,40.6,18.7,30.39,NNW,338,4.3,4.3,41,0.00,CLR,,0.00,WeatherDisplay:10.37,2013-11-14 06:16:00,
2013-11-14 01:18:00,40.6,19.3,30.39,NNE,22,4.6,4.6,42,0.00,CLR,,0.00,WeatherDisplay:10.37,2013-11-14 06:18:00,
2013-11-14 01:19:00,40.6,19.3,30.39,NNW,338,6.2,6.2,42,0.00,CLR,,0.00,WeatherDisplay:10.37,2013-11-14 06:19:00,
2013-11-14 01:21:00,40.8,19.5,30.39,North,0,8.1,8.1,42,0.00,CLR,,0.00,WeatherDisplay:10.37,2013-11-14 06:21:00,
2013-11-14 01:23:00,40.6,19.3,30.39,NNW,338,4.6,4.6,42,0.00,CLR,,0.00,WeatherDisplay:10.37,2013-11-14 06:23:00,
2013-11-14 01:24:00,40.6,19.3,30.39,North,0,3.5,3.5,42,0.00,CLR,,0.00,WeatherDisplay:10.37,2013-11-14 06:24:00,
2013-11-14 01:25:00,40.6,19.3,30.39,NNW,338,2.4,3.3,42,0.00,CLR,,0.00,WeatherDisplay:10.37,2013-11-14 06:25:00,
2013-11-14 01:27:00,40.6,19.3,30.39,North,0,5.4,5.4,42,0.00,CLR,,0.00,WeatherDisplay:10.37,2013-11-14 06:27:00,
2013-11-14 01:28:00,40.6,19.3,30.39,NNW,338,3.5,4.3,42,0.00,CLR,,0.00,WeatherDisplay:10.37,2013-11-14 06:28:00,
2013-11-14 01:29:00,40.6,19.3,30.39,NNW,338,3.8,3.8,42,0.00,CLR,,0.00,WeatherDisplay:10.37,2013-11-14 06:29:00,
2013-11-14 01:30:00,40.6,19.3,30.39,NW,315,4.3,4.3,42,0.00,CLR,,0.00,WeatherDisplay:10.37,2013-11-14 06:30:00,
2013-11-14 01:32:00,40.6,19.3,30.39,NNE,22,3.8,3.8,42,0.00,CLR,,0.00,WeatherDisplay:10.37,2013-11-14 06:32:00,
2013-11-14 01:33:00,40.6,19.3,30.39,North,0,4.3,4.3,42,0.00,CLR,,0.00,WeatherDisplay:10.37,2013-11-14 06:33:00,
2013-11-14 01:34:00,40.6,19.3,30.39,NW,315,3.8,3.8,42,0.00,CLR,,0.00,WeatherDisplay:10.37,2013-11-14 06:34:00,
2013-11-14 01:35:00,40.6,19.3,30.39,NNW,338,3.5,4.3,42,0.00,CLR,,0.00,WeatherDisplay:10.37,2013-11-14 06:35:00,
2013-11-14 01:36:00,40.6,19.3,30.39,North,0,3.1,4.3,42,0.00,CLR,,0.00,WeatherDisplay:10.37,2013-11-14 06:36:00,
2013-11-14 01:38:00,40.6,19.3,30.39,NNW,338,4.3,4.3,42,0.00,CLR,,0.00,WeatherDisplay:10.37,2013-11-14 06:38:00,
2013-11-14 01:40:00,40.6,19.9,30.39,NW,315,2.9,3.1,43,0.00,CLR,,0.00,WeatherDisplay:10.37,2013-11-14 06:40:00,
2013-11-14 01:41:00,40.6,19.9,30.39,NW,315,4.0,4.0,43,0.00,CLR,,0.00,WeatherDisplay:10.37,2013-11-14 06:41:00,
2013-11-14 01:42:00,40.6,19.9,30.39,North,0,3.6,3.6,43,0.00,CLR,,0.00,WeatherDisplay:10.37,2013-11-14 06:42:00,
2013-11-14 01:43:00,40.6,19.9,30.39,NNW,338,4.0,4.0,43,0.00,CLR,,0.00,WeatherDisplay:10.37,2013-11-14 06:43:00,
2013-11-14 01:44:00,40.6,19.9,30.39,NNW,338,3.5,3.5,43,0.00,CLR,,0.00,WeatherDisplay:10.37,2013-11-14 06:44:00,
2013-11-14 01:45:00,40.5,19.7,30.39,NW,315,4.6,4.6,43,0.00,CLR,,0.00,WeatherDisplay:10.37,2013-11-14 06:45:00,
2013-11-14 01:47:00,40.5,19.7,30.39,NW,315,3.3,3.3,43,0.00,CLR,,0.00,WeatherDisplay:10.37,2013-11-14 06:47:00,
2013-11-14 01:48:00,40.5,20.2,30.39,North,0,3.6,3.8,44,0.00,CLR,,0.00,WeatherDisplay:10.37,2013-11-14 06:48:00,
2013-11-14 01:49:00,40.5,20.2,30.39,NNE,22,3.3,3.3,44,0.00,CLR,,0.00,WeatherDisplay:10.37,2013-11-14 06:49:00,
2013-11-14 01:50:00,40.5,20.2,30.39,NW,315,3.6,3.6,44,0.00,CLR,,0.00,WeatherDisplay:10.37,2013-11-14 06:50:00,
2013-11-14 01:52:00,40.5,20.8,30.39,North,0,6.4,6.4,45,0.00,CLR,,0.00,WeatherDisplay:10.37,2013-11-14 06:52:00,
2013-11-14 01:54:00,40.5,20.8,30.39,North,0,3.1,3.3,45,0.00,CLR,,0.00,WeatherDisplay:10.37,2013-11-14 06:54:00,
2013-11-14 01:55:00,40.5,20.8,30.39,North,0,3.8,3.8,45,0.00,CLR,,0.00,WeatherDisplay:10.37,2013-11-14 06:55:00,
2013-11-14 01:56:00,40.5,20.8,30.39,NW,315,3.5,3.5,45,0.00,CLR,,0.00,WeatherDisplay:10.37,2013-11-14 06:56:00,
2013-11-14 01:57:00,40.5,20.8,30.39,North,0,4.0,4.0,45,0.00,CLR,,0.00,WeatherDisplay:10.37,2013-11-14 06:57:00,
2013-11-14 01:58:00,40.5,20.8,30.39,North,0,4.6,4.6,45,0.00,CLR,,0.00,WeatherDisplay:10.37,2013-11-14 06:58:00,
2013-11-14 01:59:00,40.5,20.8,30.39,NNW,338,5.8,5.8,45,0.00,CLR,,0.00,WeatherDisplay:10.37,2013-11-14 06:59:00,
2013-11-14 02:00:00,40.5,21.3,30.39,NW,315,3.5,3.6,46,0.00,CLR,,0.00,WeatherDisplay:10.37,2013-11-14 07:00:00,
2013-11-14 02:01:00,40.5,21.3,30.39,NNW,338,3.5,3.5,46,0.00,CLR,,0.00,WeatherDisplay:10.37,2013-11-14 07:01:00,
2013-11-14 02:02:00,40.5,21.3,30.39,NNW,338,3.6,3.6,46,0.00,CLR,,0.00,WeatherDisplay:10.37,2013-11-14 07:02:00,
2013-11-14 02:04:00,40.5,21.3,30.39,North,0,3.5,3.5,46,0.00,CLR,,0.00,WeatherDisplay:10.37,2013-11-14 07:04:00,
2013-11-14 02:05:00,40.5,21.8,30.39,North,0,2.9,4.0,47,0.00,CLR,,0.00,WeatherDisplay:10.37,2013-11-14 07:05:00,
2013-11-14 02:06:00,40.5,21.8,30.39,NNW,338,4.6,4.6,47,0.00,CLR,,0.00,WeatherDisplay:10.37,2013-11-14 07:06:00,
2013-11-14 02:08:00,40.5,22.3,30.39,NW,315,4.6,4.6,48,0.00,CLR,,0.00,WeatherDisplay:10.37,2013-11-14 07:08:00,
2013-11-14 02:09:00,40.5,22.3,30.39,NNW,338,3.5,4.0,48,0.00,CLR,,0.00,WeatherDisplay:10.37,2013-11-14 07:09:00,
2013-11-14 02:10:00,40.5,22.3,30.39,NW,315,5.6,5.6,48,0.00,CLR,,0.00,WeatherDisplay:10.37,2013-11-14 07:10:00,
2013-11-14 02:11:00,40.5,22.3,30.39,NNW,338,3.5,3.8,48,0.00,CLR,,0.00,WeatherDisplay:10.37,2013-11-14 07:11:00,
2013-11-14 02:13:00,40.5,22.8,30.39,NW,315,3.5,3.5,49,0.00,CLR,,0.00,WeatherDisplay:10.37,2013-11-14 07:13:00,
2013-11-14 02:14:00,40.5,22.8,30.36,North,0,5.8,5.8,49,0.00,CLR,,0.00,WeatherDisplay:10.37,2013-11-14 07:14:00,
2013-11-14 02:15:00,40.5,22.8,30.36,NNW,338,4.0,4.0,49,0.00,CLR,,0.00,WeatherDisplay:10.37,2013-11-14 07:15:00,
2013-11-14 02:16:00,40.5,22.8,30.36,NNE,22,5.4,5.9,49,0.00,CLR,,0.00,WeatherDisplay:10.37,2013-11-14 07:16:00,
2013-11-14 02:17:00,40.5,22.8,30.36,NNW,338,4.9,5.9,49,0.00,CLR,,0.00,WeatherDisplay:10.37,2013-11-14 07:17:00,
2013-11-14 02:18:00,40.5,22.8,30.36,North,0,5.8,5.8,49,0.00,CLR,,0.00,WeatherDisplay:10.37,2013-11-14 07:18:00,
2013-11-14 02:19:00,40.5,22.8,30.36,NNW,338,5.8,5.8,49,0.00,CLR,,0.00,WeatherDisplay:10.37,2013-11-14 07:19:00,
2013-11-14 02:20:00,40.5,22.8,30.36,NW,315,4.9,4.9,49,0.00,CLR,,0.00,WeatherDisplay:10.37,2013-11-14 07:20:00,
2013-11-14 02:21:00,40.5,22.8,30.36,North,0,4.0,4.0,49,0.00,CLR,,0.00,WeatherDisplay:10.37,2013-11-14 07:21:00,
2013-11-14 02:22:00,40.5,22.8,30.36,NNE,22,3.5,3.6,49,0.00,CLR,,0.00,WeatherDisplay:10.37,2013-11-14 07:22:00,
2013-11-14 02:23:00,40.5,22.8,30.36,North,0,3.8,3.8,49,0.00,CLR,,0.00,WeatherDisplay:10.37,2013-11-14 07:23:00,
2013-11-14 02:24:00,40.5,22.8,30.36,North,0,3.8,3.8,49,0.00,CLR,,0.00,WeatherDisplay:10.37,2013-11-14 07:24:00,
2013-11-14 02:25:00,40.5,22.8,30.36,NNW,338,3.5,3.5,49,0.00,CLR,,0.00,WeatherDisplay:10.37,2013-11-14 07:25:00,
2013-11-14 02:26:00,40.5,22.3,30.36,NW,315,4.9,4.9,48,0.00,CLR,,0.00,WeatherDisplay:10.37,2013-11-14 07:26:00,
2013-11-14 02:27:00,40.5,22.3,30.36,NW,315,4.6,4.6,48,0.00,CLR,,0.00,WeatherDisplay:10.37,2013-11-14 07:27:00,
2013-11-14 02:28:00,40.5,22.8,30.36,NNE,22,4.9,4.9,49,0.00,CLR,,0.00,WeatherDisplay:10.37,2013-11-14 07:28:00,
2013-11-14 02:29:00,40.5,22.8,30.36,NNW,338,4.6,4.6,49,0.00,CLR,,0.00,WeatherDisplay:10.37,2013-11-14 07:29:00,
2013-11-14 02:30:00,40.5,22.8,30.36,NNW,338,4.6,4.6,49,0.00,CLR,,0.00,WeatherDisplay:10.37,2013-11-14 07:30:00,
2013-11-14 02:32:00,40.5,22.8,30.36,North,0,3.5,4.0,49,0.00,CLR,,0.00,WeatherDisplay:10.37,2013-11-14 07:32:00,
2013-11-14 02:34:00,40.5,23.3,30.36,NNW,338,4.6,5.9,50,0.00,CLR,,0.00,WeatherDisplay:10.37,2013-11-14 07:34:00,
2013-11-14 02:35:00,40.5,23.3,30.36,NW,315,3.5,3.6,50,0.00,CLR,,0.00,WeatherDisplay:10.37,2013-11-14 07:35:00,
2013-11-14 02:37:00,40.5,23.3,30.36,NW,315,2.4,2.4,50,0.00,CLR,,0.00,WeatherDisplay:10.37,2013-11-14 07:37:00,
2013-11-14 02:38:00,40.5,22.8,30.36,NNW,338,3.3,3.3,49,0.00,CLR,,0.00,WeatherDisplay:10.37,2013-11-14 07:38:00,
2013-11-14 02:39:00,40.5,23.3,30.36,NNW,338,4.6,4.6,50,0.00,CLR,,0.00,WeatherDisplay:10.37,2013-11-14 07:39:00,
2013-11-14 02:40:00,40.5,23.3,30.36,NNW,338,4.0,4.0,50,0.00,CLR,,0.00,WeatherDisplay:10.37,2013-11-14 07:40:00,
2013-11-14 02:42:00,40.5,23.3,30.36,NNW,338,3.5,3.5,50,0.00,CLR,,0.00,WeatherDisplay:10.37,2013-11-14 07:42:00,
2013-11-14 02:43:00,40.5,23.3,30.36,NW,315,3.5,3.5,50,0.00,CLR,,0.00,WeatherDisplay:10.37,2013-11-14 07:43:00,
2013-11-14 02:44:00,40.5,23.3,30.39,WNW,292,3.6,3.6,50,0.00,CLR,,0.00,WeatherDisplay:10.37,2013-11-14 07:44:00,
2013-11-14 02:45:00,40.5,23.3,30.39,North,0,4.9,4.9,50,0.00,CLR,,0.00,WeatherDisplay:10.37,2013-11-14 07:45:00,
2013-11-14 02:48:00,40.5,23.3,30.39,North,0,3.8,3.8,50,0.00,CLR,,0.00,WeatherDisplay:10.37,2013-11-14 07:48:00,
2013-11-14 02:49:00,40.5,23.7,30.39,NNE,22,5.6,5.6,51,0.00,CLR,,0.00,WeatherDisplay:10.37,2013-11-14 07:49:00,
2013-11-14 02:50:00,40.5,23.7,30.39,NW,315,4.6,4.6,51,0.00,CLR,,0.00,WeatherDisplay:10.37,2013-11-14 07:50:00,
2013-11-14 02:51:00,40.5,23.7,30.39,NW,315,2.9,3.6,51,0.00,CLR,,0.00,WeatherDisplay:10.37,2013-11-14 07:51:00,
2013-11-14 02:53:00,40.5,23.7,30.39,NNW,338,4.6,4.6,51,0.00,CLR,,0.00,WeatherDisplay:10.37,2013-11-14 07:53:00,
2013-11-14 02:54:00,40.5,23.7,30.39,NW,315,5.8,5.8,51,0.00,CLR,,0.00,WeatherDisplay:10.37,2013-11-14 07:54:00,
2013-11-14 02:56:00,40.5,23.7,30.39,NNW,338,4.6,4.6,51,0.00,CLR,,0.00,WeatherDisplay:10.37,2013-11-14 07:56:00,
2013-11-14 02:57:00,40.5,23.7,30.39,NNW,338,4.7,4.7,51,0.00,CLR,,0.00,WeatherDisplay:10.37,2013-11-14 07:57:00,
2013-11-14 02:58:00,40.5,23.7,30.39,North,0,2.6,2.6,51,0.00,CLR,,0.00,WeatherDisplay:10.37,2013-11-14 07:58:00,
2013-11-14 02:59:00,40.5,23.7,30.36,North,0,3.8,3.8,51,0.00,CLR,,0.00,WeatherDisplay:10.37,2013-11-14 07:59:00,
2013-11-14 03:01:00,40.3,23.6,30.36,NW,315,3.5,3.5,51,0.00,CLR,,0.00,WeatherDisplay:10.37,2013-11-14 08:01:00,
2013-11-14 03:03:00,40.3,23.6,30.36,NNW,338,5.8,5.8,51,0.00,CLR,,0.00,WeatherDisplay:10.37,2013-11-14 08:03:00,
2013-11-14 03:04:00,40.3,24.0,30.36,NNW,338,2.6,3.3,52,0.00,CLR,,0.00,WeatherDisplay:10.37,2013-11-14 08:04:00,
2013-11-14 03:06:00,40.3,24.0,30.36,NNW,338,5.8,5.8,52,0.00,CLR,,0.00,WeatherDisplay:10.37,2013-11-14 08:06:00,
2013-11-14 03:08:00,40.3,24.0,30.36,North,0,4.6,4.6,52,0.00,CLR,,0.00,WeatherDisplay:10.37,2013-11-14 08:08:00,
2013-11-14 03:09:00,40.3,24.0,30.36,NNW,338,3.8,4.0,52,0.00,CLR,,0.00,WeatherDisplay:10.37,2013-11-14 08:09:00,
2013-11-14 03:10:00,40.3,24.0,30.36,NNW,338,5.8,5.8,52,0.00,CLR,,0.00,WeatherDisplay:10.37,2013-11-14 08:10:00,
2013-11-14 03:11:00,40.3,24.0,30.36,NNW,338,3.5,3.5,52,0.00,CLR,,0.00,WeatherDisplay:10.37,2013-11-14 08:11:00,
2013-11-14 03:13:00,40.3,24.0,30.36,NW,315,3.5,3.5,52,0.00,CLR,,0.00,WeatherDisplay:10.37,2013-11-14 08:13:00,
2013-11-14 03:14:00,40.3,24.0,30.36,North,0,3.1,3.1,52,0.00,CLR,,0.00,WeatherDisplay:10.37,2013-11-14 08:14:00,
2013-11-14 03:15:00,40.3,24.0,30.36,NW,315,4.5,4.5,52,0.00,CLR,,0.00,WeatherDisplay:10.37,2013-11-14 08:15:00,
2013-11-14 03:16:00,40.3,24.0,30.36,North,0,3.5,3.5,52,0.00,CLR,,0.00,WeatherDisplay:10.37,2013-11-14 08:16:00,
2013-11-14 03:22:00,40.3,24.5,30.36,NW,315,2.4,3.6,53,0.00,CLR,,0.00,WeatherDisplay:10.37,2013-11-14 08:22:00,
2013-11-14 03:23:00,40.3,24.5,30.36,NNW,338,4.6,4.6,53,0.00,CLR,,0.00,WeatherDisplay:10.37,2013-11-14 08:23:00,
2013-11-14 03:27:00,40.3,24.5,30.36,NW,315,2.3,4.0,53,0.00,CLR,,0.00,WeatherDisplay:10.37,2013-11-14 08:27:00,
2013-11-14 03:28:00,40.3,24.9,30.36,NW,315,3.5,3.5,54,0.00,CLR,,0.00,WeatherDisplay:10.37,2013-11-14 08:28:00,
2013-11-14 03:32:00,40.3,24.9,30.36,NW,315,2.9,2.9,54,0.00,CLR,,0.00,WeatherDisplay:10.37,2013-11-14 08:32:00,
2013-11-14 03:34:00,40.3,24.9,30.36,North,0,3.1,3.1,54,0.00,CLR,,0.00,WeatherDisplay:10.37,2013-11-14 08:34:00,
2013-11-14 03:37:00,40.3,24.9,30.36,NNW,338,2.9,2.9,54,0.00,CLR,,0.00,WeatherDisplay:10.37,2013-11-14 08:37:00,
2013-11-14 03:39:00,40.1,24.8,30.36,NNW,338,1.4,2.2,54,0.00,CLR,,0.00,WeatherDisplay:10.37,2013-11-14 08:39:00,
2013-11-14 03:40:00,40.1,24.8,30.36,NW,315,3.5,3.5,54,0.00,CLR,,0.00,WeatherDisplay:10.37,2013-11-14 08:40:00,
2013-11-14 03:42:00,40.1,24.8,30.36,NW,315,3.5,3.5,54,0.00,CLR,,0.00,WeatherDisplay:10.37,2013-11-14 08:42:00,
2013-11-14 03:43:00,40.1,24.8,30.36,NW,315,2.3,2.6,54,0.00,CLR,,0.00,WeatherDisplay:10.37,2013-11-14 08:43:00,
2013-11-14 03:44:00,39.9,24.6,30.36,NNW,338,2.3,2.3,54,0.00,CLR,,0.00,WeatherDisplay:10.37,2013-11-14 08:44:00,
2013-11-14 03:45:00,39.9,24.6,30.36,NW,315,3.1,3.1,54,0.00,CLR,,0.00,WeatherDisplay:10.37,2013-11-14 08:45:00,
2013-11-14 03:47:00,39.9,24.6,30.36,NW,315,2.4,2.4,54,0.00,CLR,,0.00,WeatherDisplay:10.37,2013-11-14 08:47:00,
2013-11-14 03:48:00,39.9,24.6,30.36,NNW,338,1.6,1.6,54,0.00,CLR,,0.00,WeatherDisplay:10.37,2013-11-14 08:48:00,
2013-11-14 03:49:00,39.9,25.0,30.36,NW,315,3.5,3.5,55,0.00,CLR,,0.00,WeatherDisplay:10.37,2013-11-14 08:49:00,
2013-11-14 03:51:00,39.9,25.0,30.36,NNW,338,1.6,1.6,55,0.00,CLR,,0.00,WeatherDisplay:10.37,2013-11-14 08:51:00,
2013-11-14 03:52:00,39.9,25.0,30.36,NW,315,3.5,3.5,55,0.00,CLR,,0.00,WeatherDisplay:10.37,2013-11-14 08:52:00,
2013-11-14 03:53:00,39.9,25.0,30.36,NNW,338,3.5,3.5,55,0.00,CLR,,0.00,WeatherDisplay:10.37,2013-11-14 08:53:00,
2013-11-14 03:54:00,39.9,25.5,30.36,NW,315,1.4,3.8,56,0.00,CLR,,0.00,WeatherDisplay:10.37,2013-11-14 08:54:00,
2013-11-14 03:56:00,39.9,25.5,30.36,NW,315,1.6,2.2,56,0.00,CLR,,0.00,WeatherDisplay:10.37,2013-11-14 08:56:00,
2013-11-14 03:57:00,39.9,25.9,30.36,NNW,338,3.5,3.5,57,0.00,CLR,,0.00,WeatherDisplay:10.37,2013-11-14 08:57:00,
2013-11-14 03:58:00,39.9,25.9,30.36,WNW,292,3.5,3.5,57,0.00,CLR,,0.00,WeatherDisplay:10.37,2013-11-14 08:58:00,
2013-11-14 03:59:00,39.9,25.9,30.36,NNW,338,2.3,2.9,57,0.00,CLR,,0.00,WeatherDisplay:10.37,2013-11-14 08:59:00,
2013-11-14 04:00:00,39.9,25.9,30.36,NNW,338,2.6,2.9,57,0.00,CLR,,0.00,WeatherDisplay:10.37,2013-11-14 09:00:00,
2013-11-14 04:02:00,39.9,26.3,30.36,NW,315,3.5,3.5,58,0.00,CLR,,0.00,WeatherDisplay:10.37,2013-11-14 09:02:00,
2013-11-14 04:03:00,39.9,26.3,30.36,WNW,292,2.9,3.3,58,0.00,CLR,,0.00,WeatherDisplay:10.37,2013-11-14 09:03:00,
2013-11-14 04:04:00,39.9,26.3,30.36,North,0,2.6,2.6,58,0.00,CLR,,0.00,WeatherDisplay:10.37,2013-11-14 09:04:00,
2013-11-14 04:06:00,39.9,26.3,30.36,NNW,338,2.6,2.6,58,0.00,CLR,,0.00,WeatherDisplay:10.37,2013-11-14 09:06:00,
2013-11-14 04:07:00,39.9,26.3,30.36,NNW,338,3.6,3.6,58,0.00,CLR,,0.00,WeatherDisplay:10.37,2013-11-14 09:07:00,
2013-11-14 04:08:00,39.9,26.7,30.36,NNW,338,5.4,5.4,59,0.00,CLR,,0.00,WeatherDisplay:10.37,2013-11-14 09:08:00,
2013-11-14 04:09:00,39.9,26.7,30.36,North,0,3.6,3.6,59,0.00,CLR,,0.00,WeatherDisplay:10.37,2013-11-14 09:09:00,
2013-11-14 04:11:00,39.9,26.7,30.36,NNW,338,4.3,4.3,59,0.00,CLR,,0.00,WeatherDisplay:10.37,2013-11-14 09:11:00,
2013-11-14 04:13:00,39.9,27.1,30.36,NW,315,5.8,5.8,60,0.00,CLR,,0.00,WeatherDisplay:10.37,2013-11-14 09:13:00,
2013-11-14 04:14:00,39.9,27.1,30.33,NNW,338,4.0,4.3,60,0.00,CLR,,0.00,WeatherDisplay:10.37,2013-11-14 09:14:00,
2013-11-14 04:16:00,40.1,27.7,30.33,NW,315,4.6,4.6,61,0.00,CLR,,0.00,WeatherDisplay:10.37,2013-11-14 09:16:00,
2013-11-14 04:18:00,40.1,28.1,30.33,NW,315,5.9,5.9,62,0.00,CLR,,0.00,WeatherDisplay:10.37,2013-11-14 09:18:00,
2013-11-14 04:19:00,40.1,28.1,30.33,North,0,5.8,5.8,62,0.00,CLR,,0.00,WeatherDisplay:10.37,2013-11-14 09:19:00,
2013-11-14 04:22:00,40.1,28.1,30.33,NNW,338,5.4,5.4,62,0.00,CLR,,0.00,WeatherDisplay:10.37,2013-11-14 09:22:00,
2013-11-14 04:23:00,40.1,28.1,30.33,North,0,3.8,3.8,62,0.00,CLR,,0.00,WeatherDisplay:10.37,2013-11-14 09:23:00,
2013-11-14 04:24:00,40.1,28.1,30.33,NNE,22,3.5,3.5,62,0.00,CLR,,0.00,WeatherDisplay:10.37,2013-11-14 09:24:00,
2013-11-14 04:27:00,40.1,28.1,30.33,NNW,338,3.5,3.5,62,0.00,CLR,,0.00,WeatherDisplay:10.37,2013-11-14 09:27:00,
2013-11-14 04:29:00,40.1,28.1,30.36,NW,315,2.3,2.6,62,0.00,CLR,,0.00,WeatherDisplay:10.37,2013-11-14 09:29:00,
2013-11-14 04:32:00,39.9,27.9,30.36,North,0,3.5,3.8,62,0.00,CLR,,0.00,WeatherDisplay:10.37,2013-11-14 09:32:00,
2013-11-14 04:34:00,39.9,27.9,30.36,NW,315,3.5,3.5,62,0.00,CLR,,0.00,WeatherDisplay:10.37,2013-11-14 09:34:00,
2013-11-14 04:35:00,39.9,27.9,30.36,NNW,338,2.3,2.9,62,0.00,CLR,,0.00,WeatherDisplay:10.37,2013-11-14 09:35:00,
2013-11-14 04:39:00,40.1,28.5,30.36,NNW,338,5.8,5.8,63,0.00,CLR,,0.00,WeatherDisplay:10.37,2013-11-14 09:39:00,
2013-11-14 04:40:00,40.1,28.5,30.36,NNW,338,3.8,4.0,63,0.00,CLR,,0.00,WeatherDisplay:10.37,2013-11-14 09:40:00,
2013-11-14 04:45:00,39.9,27.9,30.36,NNW,338,4.6,4.6,62,0.00,CLR,,0.00,WeatherDisplay:10.37,2013-11-14 09:45:00,
2013-11-14 04:50:00,39.9,28.3,30.36,NW,315,5.4,5.4,63,0.00,CLR,,0.00,WeatherDisplay:10.37,2013-11-14 09:50:00,
2013-11-14 04:55:00,39.9,28.3,30.36,NNE,22,3.3,3.3,63,0.00,CLR,,0.00,WeatherDisplay:10.37,2013-11-14 09:55:00,
2013-11-14 04:56:00,39.9,28.3,30.36,NNW,338,2.9,2.9,63,0.00,CLR,,0.00,WeatherDisplay:10.37,2013-11-14 09:56:00,
2013-11-14 05:00:00,39.9,28.3,30.36,NW,315,2.4,2.9,63,0.00,CLR,,0.00,WeatherDisplay:10.37,2013-11-14 10:00:00,
2013-11-14 05:01:00,39.9,28.3,30.36,NW,315,2.3,2.9,63,0.00,CLR,,0.00,WeatherDisplay:10.37,2013-11-14 10:01:00,
2013-11-14 05:06:00,39.7,28.2,30.36,NW,315,4.6,4.6,63,0.00,CLR,,0.00,WeatherDisplay:10.37,2013-11-14 10:06:00,
2013-11-14 05:07:00,39.9,28.7,30.36,NNW,338,6.9,6.9,64,0.00,CLR,,0.00,WeatherDisplay:10.37,2013-11-14 10:07:00,
2013-11-14 05:11:00,39.9,29.1,30.36,NNW,338,3.6,3.6,65,0.00,CLR,,0.00,WeatherDisplay:10.37,2013-11-14 10:11:00,
2013-11-14 05:12:00,39.9,29.1,30.36,NW,315,3.5,3.5,65,0.00,CLR,,0.00,WeatherDisplay:10.37,2013-11-14 10:12:00,
2013-11-14 05:16:00,39.9,29.5,30.33,WNW,292,3.5,3.5,66,0.00,CLR,,0.00,WeatherDisplay:10.37,2013-11-14 10:16:00,
2013-11-14 05:17:00,39.9,29.5,30.33,NNW,338,4.0,4.0,66,0.00,CLR,,0.00,WeatherDisplay:10.37,2013-11-14 10:17:00,
2013-11-14 05:18:00,39.9,29.5,30.33,NW,315,4.6,4.6,66,0.00,CLR,,0.00,WeatherDisplay:10.37,2013-11-14 10:18:00,
2013-11-14 05:21:00,39.9,29.8,30.33,NNW,338,4.0,4.0,67,0.00,CLR,,0.00,WeatherDisplay:10.37,2013-11-14 10:21:00,
2013-11-14 05:23:00,39.9,29.8,30.33,NW,315,4.0,4.0,67,0.00,CLR,,0.00,WeatherDisplay:10.37,2013-11-14 10:23:00,
2013-11-14 05:24:00,39.9,29.8,30.33,NNW,338,2.3,3.3,67,0.00,CLR,,0.00,WeatherDisplay:10.37,2013-11-14 10:24:00,
2013-11-14 05:26:00,39.9,29.5,30.33,NNW,338,2.6,3.1,66,0.00,CLR,,0.00,WeatherDisplay:10.37,2013-11-14 10:26:00,
2013-11-14 05:27:00,39.9,29.8,30.33,NNW,338,2.3,3.1,67,0.00,CLR,,0.00,WeatherDisplay:10.37,2013-11-14 10:27:00,
2013-11-14 05:28:00,39.9,29.5,30.36,WNW,292,4.6,4.6,66,0.00,CLR,,0.00,WeatherDisplay:10.37,2013-11-14 10:28:00,
2013-11-14 05:29:00,39.9,29.5,30.36,North,0,4.3,4.3,66,0.00,CLR,,0.00,WeatherDisplay:10.37,2013-11-14 10:29:00,
2013-11-14 05:31:00,39.9,29.8,30.36,NE,45,5.4,5.4,67,0.00,CLR,,0.00,WeatherDisplay:10.37,2013-11-14 10:31:00,
2013-11-14 05:32:00,39.9,29.8,30.36,NE,45,3.5,4.0,67,0.00,CLR,,0.00,WeatherDisplay:10.37,2013-11-14 10:32:00,
2013-11-14 05:33:00,39.9,29.8,30.36,NNE,22,3.5,3.5,67,0.00,CLR,,0.00,WeatherDisplay:10.37,2013-11-14 10:33:00,
2013-11-14 05:34:00,39.9,29.8,30.36,North,0,3.3,3.3,67,0.00,CLR,,0.00,WeatherDisplay:10.37,2013-11-14 10:34:00,
2013-11-14 05:35:00,39.9,29.8,30.36,NNW,342,2.0,6.0,67,0.00,CLR,CLR,0.00,WeatherDisplay:10.37,2013-11-14 10:35:00,
2013-11-14 05:37:00,39.9,30.2,30.36,NNW,338,4.6,4.9,68,0.00,CLR,,0.00,WeatherDisplay:10.37,2013-11-14 10:37:00,
2013-11-14 05:38:00,39.9,30.2,30.36,NNW,338,6.9,6.9,68,0.00,CLR,,0.00,WeatherDisplay:10.37,2013-11-14 10:38:00,
2013-11-14 05:39:00,39.9,30.2,30.36,NW,315,6.9,6.9,68,0.00,CLR,,0.00,WeatherDisplay:10.37,2013-11-14 10:39:00,
2013-11-14 05:40:00,40.1,30.4,30.36,NW,315,4.6,4.7,68,0.00,CLR,,0.00,WeatherDisplay:10.37,2013-11-14 10:40:00,
2013-11-14 05:42:00,40.1,30.4,30.36,NNW,338,4.6,4.6,68,0.00,CLR,,0.00,WeatherDisplay:10.37,2013-11-14 10:42:00,
2013-11-14 05:43:00,40.1,30.4,30.36,NNW,338,4.6,4.6,68,0.00,CLR,,0.00,WeatherDisplay:10.37,2013-11-14 10:43:00,
2013-11-14 05:44:00,40.1,30.7,30.36,WNW,292,5.8,5.8,69,0.00,CLR,,0.00,WeatherDisplay:10.37,2013-11-14 10:44:00,
2013-11-14 05:45:00,40.1,30.7,30.36,NW,315,5.4,5.4,69,0.00,CLR,,0.00,WeatherDisplay:10.37,2013-11-14 10:45:00,
2013-11-14 05:47:00,40.1,30.7,30.36,NNW,338,4.7,4.7,69,0.00,CLR,,0.00,WeatherDisplay:10.37,2013-11-14 10:47:00,
2013-11-14 05:48:00,40.1,30.7,30.36,NNW,338,4.9,4.9,69,0.00,CLR,,0.00,WeatherDisplay:10.37,2013-11-14 10:48:00,
2013-11-14 05:49:00,40.1,30.7,30.36,NNW,338,4.6,4.6,69,0.00,CLR,,0.00,WeatherDisplay:10.37,2013-11-14 10:49:00,
2013-11-14 05:50:00,40.1,30.7,30.36,NNW,338,5.9,5.9,69,0.00,CLR,,0.00,WeatherDisplay:10.37,2013-11-14 10:50:00,
2013-11-14 05:53:00,40.1,30.4,30.36,NNW,338,4.6,4.6,68,0.00,CLR,,0.00,WeatherDisplay:10.37,2013-11-14 10:53:00,
2013-11-14 05:54:00,40.1,30.4,30.36,NNW,338,3.5,3.5,68,0.00,CLR,,0.00,WeatherDisplay:10.37,2013-11-14 10:54:00,
2013-11-14 05:55:00,40.1,30.4,30.36,NW,315,3.5,3.5,68,0.00,CLR,,0.00,WeatherDisplay:10.37,2013-11-14 10:55:00,
2013-11-14 05:56:00,40.1,30.4,30.36,NNE,22,5.4,5.4,68,0.00,CLR,,0.00,WeatherDisplay:10.37,2013-11-14 10:56:00,
2013-11-14 05:58:00,40.3,30.9,30.36,North,0,4.6,4.6,69,0.00,CLR,,0.00,WeatherDisplay:10.37,2013-11-14 10:58:00,
2013-11-14 05:59:00,40.1,30.4,30.36,NW,315,2.3,2.3,68,0.00,CLR,,0.00,WeatherDisplay:10.37,2013-11-14 10:59:00,
2013-11-14 06:00:00,40.1,30.4,30.36,NW,315,1.2,4.3,68,0.00,CLR,,0.00,WeatherDisplay:10.37,2013-11-14 11:00:00,
2013-11-14 06:01:00,40.1,30.4,30.36,NNW,338,2.0,2.0,68,0.00,CLR,,0.00,WeatherDisplay:10.37,2013-11-14 11:01:00,
2013-11-14 06:03:00,40.1,30.4,30.36,NNW,338,3.5,3.5,68,0.00,CLR,,0.00,WeatherDisplay:10.37,2013-11-14 11:03:00,
2013-11-14 06:04:00,40.1,30.4,30.36,NNW,338,4.0,4.0,68,0.00,CLR,,0.00,WeatherDisplay:10.37,2013-11-14 11:04:00,
2013-11-14 06:05:00,40.1,30.4,30.36,NW,315,6.0,6.0,68,0.00,CLR,,0.00,WeatherDisplay:10.37,2013-11-14 11:05:00,
2013-11-14 06:06:00,40.1,30.4,30.36,NNW,338,5.8,5.8,68,0.00,CLR,,0.00,WeatherDisplay:10.37,2013-11-14 11:06:00,
2013-11-14 06:08:00,40.3,30.9,30.36,NNW,338,5.4,5.4,69,0.00,CLR,,0.00,WeatherDisplay:10.37,2013-11-14 11:08:00,
2013-11-14 06:09:00,40.3,30.9,30.36,NNW,338,5.8,5.8,69,0.00,CLR,,0.00,WeatherDisplay:10.37,2013-11-14 11:09:00,
2013-11-14 06:11:00,40.3,30.9,30.36,NW,315,4.6,4.6,69,0.00,CLR,,0.00,WeatherDisplay:10.37,2013-11-14 11:11:00,
2013-11-14 06:13:00,40.3,30.9,30.36,NNW,338,5.8,5.8,69,0.00,CLR,,0.00,WeatherDisplay:10.37,2013-11-14 11:13:00,
2013-11-14 06:14:00,40.3,30.9,30.36,NW,315,4.9,4.9,69,0.00,CLR,,0.00,WeatherDisplay:10.37,2013-11-14 11:14:00,
2013-11-14 06:15:00,40.3,30.9,30.36,NW,315,4.6,4.6,69,0.00,CLR,,0.00,WeatherDisplay:10.37,2013-11-14 11:15:00,
2013-11-14 06:16:00,40.3,30.9,30.36,NW,315,6.2,6.2,69,0.00,CLR,,0.00,WeatherDisplay:10.37,2013-11-14 11:16:00,
2013-11-14 06:17:00,40.3,30.9,30.36,NNW,338,3.8,3.8,69,0.00,CLR,,0.00,WeatherDisplay:10.37,2013-11-14 11:17:00,
2013-11-14 06:18:00,40.3,30.9,30.36,NW,315,3.8,3.8,69,0.00,CLR,,0.00,WeatherDisplay:10.37,2013-11-14 11:18:00,
2013-11-14 06:19:00,40.3,30.9,30.36,NNW,338,4.6,4.6,69,0.00,CLR,,0.00,WeatherDisplay:10.37,2013-11-14 11:19:00,
2013-11-14 06:20:00,40.3,30.9,30.36,NNW,338,4.6,4.6,69,0.00,CLR,,0.00,WeatherDisplay:10.37,2013-11-14 11:20:00,
2013-11-14 06:21:00,40.3,30.9,30.36,NNW,338,6.4,6.4,69,0.00,CLR,,0.00,WeatherDisplay:10.37,2013-11-14 11:21:00,
2013-11-14 06:22:00,40.3,30.9,30.36,NNW,338,5.8,5.8,69,0.00,CLR,,0.00,WeatherDisplay:10.37,2013-11-14 11:22:00,
2013-11-14 06:23:00,40.3,31.3,30.36,NW,315,2.4,3.3,70,0.00,CLR,,0.00,WeatherDisplay:10.37,2013-11-14 11:23:00,
2013-11-14 06:25:00,40.3,31.3,30.36,NW,315,2.3,2.6,70,0.00,CLR,,0.00,WeatherDisplay:10.37,2013-11-14 11:25:00,
2013-11-14 06:26:00,40.1,30.7,30.36,NW,315,2.4,2.4,69,0.00,CLR,,0.00,WeatherDisplay:10.37,2013-11-14 11:26:00,
2013-11-14 06:27:00,40.1,30.7,30.36,North,0,2.9,2.9,69,0.00,CLR,,0.00,WeatherDisplay:10.37,2013-11-14 11:27:00,
2013-11-14 06:28:00,40.1,30.7,30.36,North,0,2.6,3.1,69,0.00,CLR,,0.00,WeatherDisplay:10.37,2013-11-14 11:28:00,
2013-11-14 06:30:00,40.1,30.7,30.36,NW,315,2.3,2.9,69,0.00,CLR,,0.00,WeatherDisplay:10.37,2013-11-14 11:30:00,
2013-11-14 06:32:00,40.1,30.7,30.36,NW,315,2.9,2.9,69,0.00,CLR,,0.00,WeatherDisplay:10.37,2013-11-14 11:32:00,
2013-11-14 06:33:00,40.1,30.7,30.36,NW,315,4.6,4.6,69,0.00,CLR,,0.00,WeatherDisplay:10.37,2013-11-14 11:33:00,
2013-11-14 06:35:00,40.1,30.7,30.36,NNW,328,2.0,5.0,69,0.00,CLR,CLR,0.00,WeatherDisplay:10.37,2013-11-14 11:35:00,
2013-11-14 06:37:00,40.1,30.7,30.36,NNW,338,4.6,4.6,69,0.00,CLR,,0.00,WeatherDisplay:10.37,2013-11-14 11:37:00,
2013-11-14 06:38:00,40.1,31.1,30.36,NW,315,3.8,3.8,70,0.00,CLR,,0.00,WeatherDisplay:10.37,2013-11-14 11:38:00,
2013-11-14 06:40:00,40.1,31.1,30.36,WNW,292,4.0,4.0,70,0.00,CLR,,0.00,WeatherDisplay:10.37,2013-11-14 11:40:00,
2013-11-14 06:41:00,40.1,31.1,30.36,NW,315,3.5,3.5,70,0.00,CLR,,0.00,WeatherDisplay:10.37,2013-11-14 11:41:00,
2013-11-14 06:42:00,40.1,31.1,30.36,NW,315,4.7,4.7,70,0.00,CLR,,0.00,WeatherDisplay:10.37,2013-11-14 11:42:00,
2013-11-14 06:44:00,40.1,31.1,30.39,North,0,1.4,2.6,70,0.00,CLR,,0.00,WeatherDisplay:10.37,2013-11-14 11:44:00,
2013-11-14 06:45:00,40.1,31.1,30.39,NNW,338,2.6,3.1,70,0.00,CLR,,0.00,WeatherDisplay:10.37,2013-11-14 11:45:00,
2013-11-14 06:46:00,39.9,30.9,30.39,North,0,3.5,3.5,70,0.00,CLR,,0.00,WeatherDisplay:10.37,2013-11-14 11:46:00,
2013-11-14 06:47:00,39.9,30.9,30.39,NW,315,3.1,3.1,70,0.00,CLR,,0.00,WeatherDisplay:10.37,2013-11-14 11:47:00,
2013-11-14 06:49:00,39.9,30.9,30.39,NNW,338,3.5,3.5,70,0.00,CLR,,0.00,WeatherDisplay:10.37,2013-11-14 11:49:00,
2013-11-14 06:50:00,40.1,31.4,30.39,NNW,338,2.6,3.1,71,0.00,CLR,,0.00,WeatherDisplay:10.37,2013-11-14 11:50:00,
2013-11-14 06:51:00,40.1,31.4,30.39,NNW,338,2.9,3.1,71,0.00,CLR,,0.00,WeatherDisplay:10.37,2013-11-14 11:51:00,
2013-11-14 06:52:00,40.1,31.4,30.39,NW,315,4.6,4.6,71,0.00,CLR,,0.00,WeatherDisplay:10.37,2013-11-14 11:52:00,
2013-11-14 06:53:00,40.1,31.4,30.39,North,0,3.1,3.1,71,0.00,CLR,,0.00,WeatherDisplay:10.37,2013-11-14 11:53:00,
2013-11-14 06:54:00,40.1,31.4,30.39,NNW,338,3.5,3.5,71,0.00,CLR,,0.00,WeatherDisplay:10.37,2013-11-14 11:54:00,
2013-11-14 06:55:00,40.1,31.4,30.39,North,0,1.6,2.2,71,0.00,CLR,,0.00,WeatherDisplay:10.37,2013-11-14 11:55:00,
2013-11-14 06:56:00,40.1,31.4,30.39,NNW,338,4.6,4.6,71,0.00,CLR,,0.00,WeatherDisplay:10.37,2013-11-14 11:56:00,
2013-11-14 06:58:00,40.1,31.4,30.39,NNW,338,3.6,3.6,71,0.00,CLR,,0.00,WeatherDisplay:10.37,2013-11-14 11:58:00,
2013-11-14 06:59:00,40.1,31.4,30.36,North,0,2.6,2.6,71,0.00,CLR,,0.00,WeatherDisplay:10.37,2013-11-14 11:59:00,
2013-11-14 07:00:00,40.1,31.4,30.36,NNW,338,3.6,3.6,71,0.00,CLR,,0.00,WeatherDisplay:10.37,2013-11-14 12:00:00,
2013-11-14 07:02:00,40.3,31.6,30.36,North,0,3.6,3.6,71,0.00,CLR,,0.00,WeatherDisplay:10.37,2013-11-14 12:02:00,
2013-11-14 07:03:00,40.3,31.6,30.36,NNW,338,3.6,3.6,71,0.00,CLR,,0.00,WeatherDisplay:10.37,2013-11-14 12:03:00,
2013-11-14 07:04:00,40.3,31.6,30.36,North,0,3.5,3.5,71,0.00,CLR,,0.00,WeatherDisplay:10.37,2013-11-14 12:04:00,
2013-11-14 07:06:00,40.3,31.6,30.36,NNW,338,3.5,3.5,71,0.00,CLR,,0.00,WeatherDisplay:10.37,2013-11-14 12:06:00,
2013-11-14 07:07:00,40.3,31.6,30.36,NW,315,3.6,3.6,71,0.00,CLR,,0.00,WeatherDisplay:10.37,2013-11-14 12:07:00,
2013-11-14 07:08:00,40.3,32.0,30.36,NW,315,3.5,3.5,72,0.00,CLR,,0.00,WeatherDisplay:10.37,2013-11-14 12:08:00,
2013-11-14 07:09:00,40.3,32.0,30.36,NW,315,3.6,3.6,72,0.00,CLR,,0.00,WeatherDisplay:10.37,2013-11-14 12:09:00,
2013-11-14 07:11:00,40.5,32.1,30.36,NW,315,4.3,4.3,72,0.00,CLR,,0.00,WeatherDisplay:10.37,2013-11-14 12:11:00,
2013-11-14 07:12:00,40.5,32.1,30.36,NNW,338,4.6,4.6,72,0.00,CLR,,0.00,WeatherDisplay:10.37,2013-11-14 12:12:00,
2013-11-14 07:14:00,40.5,32.1,30.39,NNE,22,3.3,3.8,72,0.00,CLR,,0.00,WeatherDisplay:10.37,2013-11-14 12:14:00,
2013-11-14 07:15:00,40.5,32.1,30.39,NW,315,2.4,2.4,72,0.00,CLR,,0.00,WeatherDisplay:10.37,2013-11-14 12:15:00,
2013-11-14 07:16:00,40.6,32.3,30.39,NNW,338,3.3,3.3,72,0.00,CLR,,0.00,WeatherDisplay:10.37,2013-11-14 12:16:00,
2013-11-14 07:18:00,40.8,32.5,30.39,NW,315,4.6,4.6,72,0.00,CLR,,0.00,WeatherDisplay:10.37,2013-11-14 12:18:00,
2013-11-14 07:19:00,41.0,32.7,30.39,NW,315,3.5,3.5,72,0.00,CLR,,0.00,WeatherDisplay:10.37,2013-11-14 12:19:00,
2013-11-14 07:20:00,41.2,32.8,30.39,North,0,2.4,2.6,72,0.00,CLR,,0.00,WeatherDisplay:10.37,2013-11-14 12:20:00,
2013-11-14 07:21:00,41.5,33.5,30.39,NW,315,2.3,2.4,73,0.00,CLR,,0.00,WeatherDisplay:10.37,2013-11-14 12:21:00,
2013-11-14 07:22:00,41.5,33.5,30.39,NNW,338,4.3,4.3,73,0.00,CLR,,0.00,WeatherDisplay:10.37,2013-11-14 12:22:00,
2013-11-14 07:23:00,41.7,33.7,30.39,NNW,338,3.8,3.8,73,0.00,CLR,,0.00,WeatherDisplay:10.37,2013-11-14 12:23:00,
2013-11-14 07:24:00,42.1,34.0,30.39,North,0,4.0,4.0,73,0.00,CLR,,0.00,WeatherDisplay:10.37,2013-11-14 12:24:00,
2013-11-14 07:25:00,42.3,34.2,30.39,NW,315,4.6,4.6,73,0.00,CLR,,0.00,WeatherDisplay:10.37,2013-11-14 12:25:00,
2013-11-14 07:27:00,42.6,34.6,30.39,North,0,3.5,3.5,73,0.00,CLR,,0.00,WeatherDisplay:10.37,2013-11-14 12:27:00,
2013-11-14 07:28:00,42.8,34.7,30.39,NW,315,2.4,3.1,73,0.00,CLR,,0.00,WeatherDisplay:10.37,2013-11-14 12:28:00,
2013-11-14 07:30:00,43.0,34.9,30.39,North,0,3.8,3.8,73,0.00,CLR,,0.00,WeatherDisplay:10.37,2013-11-14 12:30:00,
2013-11-14 07:31:00,43.2,34.7,30.39,NNW,338,3.5,3.6,72,0.00,CLR,,0.00,WeatherDisplay:10.37,2013-11-14 12:31:00,
2013-11-14 07:32:00,43.5,35.1,30.39,NNW,338,2.6,3.1,72,0.00,CLR,,0.00,WeatherDisplay:10.37,2013-11-14 12:32:00,
2013-11-14 07:33:00,43.5,34.7,30.39,NW,315,3.5,3.6,71,0.00,CLR,,0.00,WeatherDisplay:10.37,2013-11-14 12:33:00,
2013-11-14 07:35:00,43.9,34.7,30.39,North,0,4.6,4.6,70,0.00,CLR,,0.00,WeatherDisplay:10.37,2013-11-14 12:35:00,
2013-11-14 07:36:00,44.1,34.5,30.39,NNW,338,3.8,3.8,69,0.00,CLR,,0.00,WeatherDisplay:10.37,2013-11-14 12:36:00,
2013-11-14 07:37:00,44.2,34.7,30.39,NNW,338,3.6,3.8,69,0.00,CLR,,0.00,WeatherDisplay:10.37,2013-11-14 12:37:00,
2013-11-14 07:38:00,44.2,34.7,30.39,NNW,338,4.3,4.3,69,0.00,CLR,,0.00,WeatherDisplay:10.37,2013-11-14 12:38:00,
2013-11-14 07:40:00,44.4,34.5,30.39,NNW,338,3.5,4.3,68,0.00,CLR,,0.00,WeatherDisplay:10.37,2013-11-14 12:40:00,
2013-11-14 07:41:00,44.8,34.1,30.39,NW,315,4.6,4.6,66,0.00,CLR,,0.00,WeatherDisplay:10.37,2013-11-14 12:41:00,
2013-11-14 07:42:00,44.8,33.7,30.39,NNW,338,4.9,4.9,65,0.00,CLR,,0.00,WeatherDisplay:10.37,2013-11-14 12:42:00,
2013-11-14 07:43:00,44.8,33.3,30.39,NNW,338,5.9,5.9,64,0.00,CLR,,0.00,WeatherDisplay:10.37,2013-11-14 12:43:00,
2013-11-14 07:44:00,44.8,33.3,30.39,North,0,4.6,4.6,64,0.00,CLR,,0.00,WeatherDisplay:10.37,2013-11-14 12:44:00,
2013-11-14 07:45:00,45.0,33.1,30.39,NNW,338,4.7,4.7,63,0.00,CLR,,0.00,WeatherDisplay:10.37,2013-11-14 12:45:00,
2013-11-14 07:46:00,45.3,33.5,30.39,West,270,3.8,3.8,63,0.00,CLR,,0.00,WeatherDisplay:10.37,2013-11-14 12:46:00,
2013-11-14 07:47:00,45.3,33.5,30.39,NNW,338,2.9,2.9,63,0.00,CLR,,0.00,WeatherDisplay:10.37,2013-11-14 12:47:00,
2013-11-14 07:49:00,45.5,32.8,30.39,NNW,338,5.4,5.4,61,0.00,CLR,,0.00,WeatherDisplay:10.37,2013-11-14 12:49:00,
2013-11-14 07:50:00,45.9,33.2,30.39,North,0,3.5,3.5,61,0.00,CLR,,0.00,WeatherDisplay:10.37,2013-11-14 12:50:00,
2013-11-14 07:51:00,46.0,32.9,30.39,NNE,22,4.3,4.3,60,0.00,CLR,,0.00,WeatherDisplay:10.37,2013-11-14 12:51:00,
2013-11-14 07:52:00,46.0,32.9,30.39,NNE,22,4.6,4.6,60,0.00,CLR,,0.00,WeatherDisplay:10.37,2013-11-14 12:52:00,
2013-11-14 07:53:00,46.4,33.3,30.39,North,0,3.1,3.1,60,0.00,CLR,,0.00,WeatherDisplay:10.37,2013-11-14 12:53:00,
2013-11-14 07:54:00,46.4,33.3,30.39,NNE,22,3.5,3.5,60,0.00,CLR,,0.00,WeatherDisplay:10.37,2013-11-14 12:54:00,
2013-11-14 07:55:00,46.4,32.4,30.39,NNW,338,5.8,5.8,58,0.00,CLR,,0.00,WeatherDisplay:10.37,2013-11-14 12:55:00,
2013-11-14 07:56:00,46.4,31.5,30.39,NW,315,5.8,5.8,56,0.00,CLR,,0.00,WeatherDisplay:10.37,2013-11-14 12:56:00,
2013-11-14 07:57:00,46.6,31.7,30.39,North,0,3.5,4.7,56,0.00,CLR,,0.00,WeatherDisplay:10.37,2013-11-14 12:57:00,
2013-11-14 07:59:00,46.8,31.4,30.39,North,0,9.2,9.2,55,0.00,CLR,,0.00,WeatherDisplay:10.37,2013-11-14 12:59:00,
2013-11-14 08:00:00,46.8,31.4,30.39,NNW,338,3.5,3.8,55,0.00,CLR,,0.00,WeatherDisplay:10.37,2013-11-14 13:00:00,
2013-11-14 08:01:00,46.9,31.1,30.39,NNW,338,2.6,3.8,54,0.00,CLR,,0.00,WeatherDisplay:10.37,2013-11-14 13:01:00,
2013-11-14 08:02:00,47.1,30.9,30.39,NW,315,6.4,6.4,53,0.00,CLR,,0.00,WeatherDisplay:10.37,2013-11-14 13:02:00,
2013-11-14 08:04:00,47.1,30.9,30.39,NNW,338,5.9,5.9,53,0.00,CLR,,0.00,WeatherDisplay:10.37,2013-11-14 13:04:00,
2013-11-14 08:06:00,47.3,31.0,30.39,WNW,292,4.6,4.6,53,0.00,CLR,,0.00,WeatherDisplay:10.37,2013-11-14 13:06:00,
2013-11-14 08:07:00,47.3,31.0,30.39,NW,315,5.8,5.8,53,0.00,CLR,,0.00,WeatherDisplay:10.37,2013-11-14 13:07:00,
2013-11-14 08:09:00,47.7,30.9,30.39,NNW,338,4.6,4.6,52,0.00,CLR,,0.00,WeatherDisplay:10.37,2013-11-14 13:09:00,
2013-11-14 08:11:00,47.8,31.0,30.39,NE,45,3.8,3.8,52,0.00,CLR,,0.00,WeatherDisplay:10.37,2013-11-14 13:11:00,
2013-11-14 08:12:00,48.0,31.2,30.39,NNW,338,3.8,4.0,52,0.00,CLR,,0.00,WeatherDisplay:10.37,2013-11-14 13:12:00,
2013-11-14 08:14:00,48.4,30.6,30.39,North,0,4.9,4.9,50,0.00,CLR,,0.00,WeatherDisplay:10.37,2013-11-14 13:14:00,
2013-11-14 08:16:00,48.6,31.2,30.39,NNW,338,4.3,4.3,51,0.00,CLR,,0.00,WeatherDisplay:10.37,2013-11-14 13:16:00,
2013-11-14 08:17:00,48.7,31.4,30.39,NE,45,3.5,3.5,51,0.00,CLR,,0.00,WeatherDisplay:10.37,2013-11-14 13:17:00,
2013-11-14 08:18:00,48.9,31.6,30.39,NNW,338,3.5,3.5,51,0.00,CLR,,0.00,WeatherDisplay:10.37,2013-11-14 13:18:00,
2013-11-14 08:19:00,49.3,31.4,30.39,NW,315,4.6,4.6,50,0.00,CLR,,0.00,WeatherDisplay:10.37,2013-11-14 13:19:00,
2013-11-14 08:20:00,49.3,31.4,30.39,NW,315,4.6,4.6,50,0.00,CLR,,0.00,WeatherDisplay:10.37,2013-11-14 13:20:00,
2013-11-14 08:21:00,49.3,31.4,30.39,NNW,338,4.0,4.0,50,0.00,CLR,,0.00,WeatherDisplay:10.37,2013-11-14 13:21:00,
2013-11-14 08:23:00,49.6,31.2,30.39,North,0,6.9,6.9,49,0.00,CLR,,0.00,WeatherDisplay:10.37,2013-11-14 13:23:00,
2013-11-14 08:25:00,49.8,30.9,30.39,NNW,338,5.8,6.0,48,0.00,CLR,,0.00,WeatherDisplay:10.37,2013-11-14 13:25:00,
2013-11-14 08:26:00,49.8,30.9,30.39,North,0,5.8,5.8,48,0.00,CLR,,0.00,WeatherDisplay:10.37,2013-11-14 13:26:00,
2013-11-14 08:28:00,50.0,31.1,30.39,ENE,68,6.9,6.9,48,0.00,CLR,,0.00,WeatherDisplay:10.37,2013-11-14 13:28:00,
2013-11-14 08:29:00,50.4,30.9,30.39,ENE,68,6.4,6.4,47,0.00,CLR,,0.00,WeatherDisplay:10.37,2013-11-14 13:29:00,
2013-11-14 08:30:00,50.4,30.9,30.39,North,0,4.0,4.3,47,0.00,CLR,,0.00,WeatherDisplay:10.37,2013-11-14 13:30:00,
2013-11-14 08:32:00,50.4,30.9,30.39,NW,315,3.5,4.9,47,0.00,CLR,,0.00,WeatherDisplay:10.37,2013-11-14 13:32:00,
2013-11-14 08:33:00,50.7,31.2,30.39,NW,315,3.5,5.6,47,0.00,CLR,,0.00,WeatherDisplay:10.37,2013-11-14 13:33:00,
2013-11-14 08:35:00,51.1,31.5,30.39,NNE,22,2.6,3.3,47,0.00,CLR,,0.00,WeatherDisplay:10.37,2013-11-14 13:35:00,
2013-11-14 08:37:00,51.3,31.2,30.39,NNE,22,4.6,4.7,46,0.00,CLR,,0.00,WeatherDisplay:10.37,2013-11-14 13:37:00,
2013-11-14 08:39:00,51.3,30.6,30.39,NE,45,2.6,4.5,45,0.00,CLR,,0.00,WeatherDisplay:10.37,2013-11-14 13:39:00,
2013-11-14 08:40:00,51.6,31.5,30.39,North,0,4.9,4.9,46,0.00,CLR,,0.00,WeatherDisplay:10.37,2013-11-14 13:40:00,
2013-11-14 08:41:00,51.8,31.1,30.39,North,0,5.9,5.9,45,0.00,CLR,,0.00,WeatherDisplay:10.37,2013-11-14 13:41:00,
2013-11-14 08:42:00,51.8,30.6,30.39,North,0,8.5,8.5,44,0.00,CLR,,0.00,WeatherDisplay:10.37,2013-11-14 13:42:00,
2013-11-14 08:44:00,51.6,30.4,30.39,NNW,338,5.8,5.8,44,0.00,CLR,,0.00,WeatherDisplay:10.37,2013-11-14 13:44:00,
2013-11-14 08:45:00,51.8,30.0,30.39,North,0,5.8,5.8,43,0.00,CLR,,0.00,WeatherDisplay:10.37,2013-11-14 13:45:00,
2013-11-14 08:46:00,51.8,30.0,30.39,NNE,22,4.7,4.7,43,0.00,CLR,,0.00,WeatherDisplay:10.37,2013-11-14 13:46:00,
2013-11-14 08:47:00,52.3,30.5,30.39,North,0,3.3,3.3,43,0.00,CLR,,0.00,WeatherDisplay:10.37,2013-11-14 13:47:00,
2013-11-14 08:49:00,52.7,30.2,30.39,North,0,5.8,5.8,42,0.00,CLR,,0.00,WeatherDisplay:10.37,2013-11-14 13:49:00,
2013-11-14 08:51:00,53.1,31.1,30.39,NNW,338,2.3,3.1,43,0.00,CLR,,0.00,WeatherDisplay:10.37,2013-11-14 13:51:00,
2013-11-14 08:52:00,53.1,30.0,30.39,NW,315,5.8,5.8,41,0.00,CLR,,0.00,WeatherDisplay:10.37,2013-11-14 13:52:00,
2013-11-14 08:55:00,53.2,30.1,30.39,North,0,2.6,4.7,41,0.00,CLR,,0.00,WeatherDisplay:10.37,2013-11-14 13:55:00,
2013-11-14 08:56:00,53.2,30.1,30.39,WNW,292,3.5,3.5,41,0.00,CLR,,0.00,WeatherDisplay:10.37,2013-11-14 13:56:00,
2013-11-14 08:57:00,53.8,30.0,30.39,NW,315,8.1,8.1,40,0.00,CLR,,0.00,WeatherDisplay:10.37,2013-11-14 13:57:00,
2013-11-14 08:58:00,54.0,30.2,30.39,West,270,3.5,3.5,40,0.00,CLR,,0.00,WeatherDisplay:10.37,2013-11-14 13:58:00,
2013-11-14 09:00:00,54.5,31.3,30.39,North,0,4.9,4.9,41,0.00,CLR,,0.00,WeatherDisplay:10.37,2013-11-14 14:00:00,
2013-11-14 09:01:00,54.5,30.0,30.39,East,90,5.4,5.4,39,0.00,CLR,,0.00,WeatherDisplay:10.37,2013-11-14 14:01:00,
2013-11-14 09:02:00,54.7,30.2,30.39,North,0,6.0,6.0,39,0.00,CLR,,0.00,WeatherDisplay:10.37,2013-11-14 14:02:00,
2013-11-14 09:03:00,55.0,31.1,30.39,NNE,22,3.5,3.5,40,0.00,CLR,,0.00,WeatherDisplay:10.37,2013-11-14 14:03:00,
2013-11-14 09:05:00,55.0,29.9,30.39,NNW,338,4.3,4.3,38,0.00,CLR,,0.00,WeatherDisplay:10.37,2013-11-14 14:05:00,
2013-11-14 09:06:00,55.2,30.0,30.39,NNE,22,5.4,5.4,38,0.00,CLR,,0.00,WeatherDisplay:10.37,2013-11-14 14:06:00,
2013-11-14 09:07:00,55.0,29.9,30.39,NNW,338,5.8,5.8,38,0.00,CLR,,0.00,WeatherDisplay:10.37,2013-11-14 14:07:00,
2013-11-14 09:08:00,55.4,30.2,30.39,North,0,3.6,3.6,38,0.00,CLR,,0.00,WeatherDisplay:10.37,2013-11-14 14:08:00,
2013-11-14 09:11:00,55.9,30.0,30.39,North,0,4.6,4.6,37,0.00,CLR,,0.00,WeatherDisplay:10.37,2013-11-14 14:11:00,
2013-11-14 09:12:00,55.6,29.0,30.39,North,0,3.6,4.9,36,0.00,CLR,,0.00,WeatherDisplay:10.37,2013-11-14 14:12:00,
2013-11-14 09:13:00,55.8,29.9,30.39,ENE,68,3.5,4.9,37,0.00,CLR,,0.00,WeatherDisplay:10.37,2013-11-14 14:13:00,
2013-11-14 09:16:00,56.8,30.1,30.39,North,0,4.7,4.7,36,0.00,CLR,,0.00,WeatherDisplay:10.37,2013-11-14 14:16:00,
2013-11-14 09:17:00,56.8,30.1,30.39,NNW,338,3.1,3.1,36,0.00,CLR,,0.00,WeatherDisplay:10.37,2013-11-14 14:17:00,
2013-11-14 09:18:00,56.8,30.1,30.39,NNW,338,4.6,4.6,36,0.00,CLR,,0.00,WeatherDisplay:10.37,2013-11-14 14:18:00,
2013-11-14 09:19:00,56.8,30.8,30.39,NNE,22,4.0,4.0,37,0.00,CLR,,0.00,WeatherDisplay:10.37,2013-11-14 14:19:00,
2013-11-14 09:21:00,56.8,30.1,30.39,North,0,6.0,6.0,36,0.00,CLR,,0.00,WeatherDisplay:10.37,2013-11-14 14:21:00,
2013-11-14 09:22:00,56.5,29.8,30.39,North,0,5.8,5.8,36,0.00,CLR,,0.00,WeatherDisplay:10.37,2013-11-14 14:22:00,
2013-11-14 09:23:00,57.0,30.3,30.39,ENE,68,4.6,4.6,36,0.00,CLR,,0.00,WeatherDisplay:10.37,2013-11-14 14:23:00,
2013-11-14 09:24:00,57.2,30.5,30.39,NW,315,1.2,2.2,36,0.00,CLR,,0.00,WeatherDisplay:10.37,2013-11-14 14:24:00,
2013-11-14 09:26:00,57.9,31.1,30.39,NNW,338,2.9,2.9,36,0.00,CLR,,0.00,WeatherDisplay:10.37,2013-11-14 14:26:00,
2013-11-14 09:27:00,58.3,31.4,30.39,NW,315,2.4,2.6,36,0.00,CLR,,0.00,WeatherDisplay:10.37,2013-11-14 14:27:00,
2013-11-14 09:28:00,58.5,30.9,30.39,NW,315,4.6,4.6,35,0.00,CLR,,0.00,WeatherDisplay:10.37,2013-11-14 14:28:00,
2013-11-14 09:29:00,58.5,30.9,30.39,NNW,338,4.6,4.6,35,0.00,CLR,,0.00,WeatherDisplay:10.37,2013-11-14 14:29:00,
2013-11-14 09:32:00,58.5,30.9,30.39,North,0,4.0,4.0,35,0.00,CLR,,0.00,WeatherDisplay:10.37,2013-11-14 14:32:00,
2013-11-14 09:33:00,58.8,31.2,30.39,NNW,338,3.8,3.8,35,0.00,CLR,,0.00,WeatherDisplay:10.37,2013-11-14 14:33:00,
2013-11-14 09:34:00,59.0,31.4,30.39,NW,315,3.8,3.8,35,0.00,CLR,,0.00,WeatherDisplay:10.37,2013-11-14 14:34:00,
2013-11-14 09:35:00,59.0,31.4,30.39,NE,45,4.3,4.5,35,0.00,CLR,,0.00,WeatherDisplay:10.37,2013-11-14 14:35:00,
2013-11-14 09:37:00,59.4,31.0,30.39,East,90,5.8,5.8,34,0.00,CLR,,0.00,WeatherDisplay:10.37,2013-11-14 14:37:00,
2013-11-14 09:38:00,59.4,31.0,30.39,West,270,1.2,4.0,34,0.00,CLR,,0.00,WeatherDisplay:10.37,2013-11-14 14:38:00,
2013-11-14 09:39:00,59.5,31.8,30.39,NNE,22,3.1,3.1,35,0.00,CLR,,0.00,WeatherDisplay:10.37,2013-11-14 14:39:00,
2013-11-14 09:40:00,59.7,32.0,30.39,NW,315,2.4,2.6,35,0.00,CLR,,0.00,WeatherDisplay:10.37,2013-11-14 14:40:00,
2013-11-14 09:42:00,60.1,31.6,30.39,North,0,3.5,3.6,34,0.00,CLR,,0.00,WeatherDisplay:10.37,2013-11-14 14:42:00,
2013-11-14 09:43:00,60.4,32.6,30.39,East,90,2.6,2.9,35,0.00,CLR,,0.00,WeatherDisplay:10.37,2013-11-14 14:43:00,
2013-11-14 09:45:00,61.0,32.4,30.39,NW,315,4.6,4.6,34,0.00,CLR,,0.00,WeatherDisplay:10.37,2013-11-14 14:45:00,
2013-11-14 09:46:00,61.0,32.4,30.39,North,0,6.0,6.0,34,0.00,CLR,,0.00,WeatherDisplay:10.37,2013-11-14 14:46:00,
2013-11-14 09:47:00,60.6,31.3,30.39,NE,45,4.9,4.9,33,0.00,CLR,,0.00,WeatherDisplay:10.37,2013-11-14 14:47:00,
2013-11-14 09:48:00,60.8,32.2,30.39,North,0,3.8,3.8,34,0.00,CLR,,0.00,WeatherDisplay:10.37,2013-11-14 14:48:00,
2013-11-14 09:50:00,61.0,31.6,30.39,North,0,3.5,3.6,33,0.00,CLR,,0.00,WeatherDisplay:10.37,2013-11-14 14:50:00,
2013-11-14 09:51:00,61.0,30.9,30.39,North,0,4.3,4.3,32,0.00,CLR,,0.00,WeatherDisplay:10.37,2013-11-14 14:51:00,
2013-11-14 09:52:00,61.2,31.8,30.39,North,0,5.9,5.9,33,0.00,CLR,,0.00,WeatherDisplay:10.37,2013-11-14 14:52:00,
2013-11-14 09:53:00,61.3,31.2,30.39,NNW,338,4.6,4.6,32,0.00,CLR,,0.00,WeatherDisplay:10.37,2013-11-14 14:53:00,
2013-11-14 09:55:00,61.7,30.7,30.39,NNW,338,2.3,2.9,31,0.00,CLR,,0.00,WeatherDisplay:10.37,2013-11-14 14:55:00,
2013-11-14 09:56:00,62.1,31.8,30.39,NW,315,2.9,2.9,32,0.00,CLR,,0.00,WeatherDisplay:10.37,2013-11-14 14:56:00,
2013-11-14 09:57:00,62.1,31.0,30.39,NNW,338,4.6,4.7,31,0.00,CLR,,0.00,WeatherDisplay:10.37,2013-11-14 14:57:00,
2013-11-14 09:58:00,62.2,31.2,30.39,ENE,68,5.8,5.8,31,0.00,CLR,,0.00,WeatherDisplay:10.37,2013-11-14 14:58:00,
2013-11-14 10:01:00,61.9,30.9,30.39,North,0,10.5,10.5,31,0.00,CLR,,0.00,WeatherDisplay:10.37,2013-11-14 15:01:00,
2013-11-14 10:02:00,62.1,31.0,30.39,NE,45,6.9,7.1,31,0.00,CLR,,0.00,WeatherDisplay:10.37,2013-11-14 15:02:00,
2013-11-14 10:03:00,62.1,31.0,30.39,NW,315,2.6,6.2,31,0.00,CLR,,0.00,WeatherDisplay:10.37,2013-11-14 15:03:00,
2013-11-14 10:06:00,62.6,30.7,30.39,NE,45,2.9,2.9,30,0.00,CLR,,0.00,WeatherDisplay:10.37,2013-11-14 15:06:00,
2013-11-14 10:07:00,62.6,30.7,30.39,NNW,338,3.8,3.8,30,0.00,CLR,,0.00,WeatherDisplay:10.37,2013-11-14 15:07:00,
2013-11-14 10:08:00,61.5,29.8,30.39,NE,45,6.9,6.9,30,0.00,CLR,,0.00,WeatherDisplay:10.37,2013-11-14 15:08:00,
2013-11-14 10:11:00,61.7,31.5,30.39,NNE,22,4.7,4.7,32,0.00,CLR,,0.00,WeatherDisplay:10.37,2013-11-14 15:11:00,
2013-11-14 10:12:00,62.2,32.8,30.39,NNE,22,2.3,2.4,33,0.00,CLR,,0.00,WeatherDisplay:10.37,2013-11-14 15:12:00,
2013-11-14 10:13:00,62.8,32.5,30.39,NNE,22,8.1,8.1,32,0.00,CLR,,0.00,WeatherDisplay:10.37,2013-11-14 15:13:00,
2013-11-14 10:14:00,62.6,31.5,30.36,North,0,9.7,9.7,31,0.00,CLR,,0.00,WeatherDisplay:10.37,2013-11-14 15:14:00,
2013-11-14 10:16:00,62.8,31.7,30.36,North,0,8.1,8.1,31,0.00,CLR,,0.00,WeatherDisplay:10.37,2013-11-14 15:16:00,
2013-11-14 10:17:00,62.6,31.5,30.36,NE,45,2.9,7.1,31,0.00,CLR,,0.00,WeatherDisplay:10.37,2013-11-14 15:17:00,
2013-11-14 10:18:00,63.1,32.0,30.36,SW,225,3.3,4.3,31,0.00,CLR,,0.00,WeatherDisplay:10.37,2013-11-14 15:18:00,
2013-11-14 10:19:00,63.5,32.3,30.36,North,0,4.3,4.3,31,0.00,CLR,,0.00,WeatherDisplay:10.37,2013-11-14 15:19:00,
2013-11-14 10:22:00,63.7,31.6,30.36,NW,315,5.8,6.0,30,0.00,CLR,,0.00,WeatherDisplay:10.37,2013-11-14 15:22:00,
2013-11-14 10:23:00,63.7,31.6,30.36,NNW,338,2.6,6.0,30,0.00,CLR,,0.00,WeatherDisplay:10.37,2013-11-14 15:23:00,
2013-11-14 10:24:00,64.0,32.8,30.36,North,0,5.9,5.9,31,0.00,CLR,,0.00,WeatherDisplay:10.37,2013-11-14 15:24:00,
2013-11-14 10:28:00,64.4,32.3,30.36,WNW,292,8.7,8.7,30,0.00,CLR,,0.00,WeatherDisplay:10.37,2013-11-14 15:28:00,
2013-11-14 10:29:00,64.2,32.1,30.39,NNE,22,5.8,5.8,30,0.00,CLR,,0.00,WeatherDisplay:10.37,2013-11-14 15:29:00,
2013-11-14 10:33:00,65.3,32.2,30.39,NNE,22,4.6,4.6,29,0.00,CLR,,0.00,WeatherDisplay:10.37,2013-11-14 15:33:00,
2013-11-14 10:34:00,65.1,31.2,30.39,East,90,8.5,8.5,28,0.00,CLR,,0.00,WeatherDisplay:10.37,2013-11-14 15:34:00,
2013-11-14 10:35:00,64.6,30.7,30.39,NNE,22,9.7,9.7,28,0.00,CLR,,0.00,WeatherDisplay:10.37,2013-11-14 15:35:00,
2013-11-14 10:38:00,65.1,32.0,30.39,East,90,5.8,5.8,29,0.00,CLR,,0.00,WeatherDisplay:10.37,2013-11-14 15:38:00,
2013-11-14 10:39:00,65.1,32.0,30.39,NE,45,5.8,5.8,29,0.00,CLR,,0.00,WeatherDisplay:10.37,2013-11-14 15:39:00,
2013-11-14 10:40:00,64.9,31.9,30.39,North,0,10.4,10.4,29,0.00,CLR,,0.00,WeatherDisplay:10.37,2013-11-14 15:40:00,
2013-11-14 10:43:00,65.1,32.9,30.39,NNE,22,6.0,6.0,30,0.00,CLR,,0.00,WeatherDisplay:10.37,2013-11-14 15:43:00,
2013-11-14 10:44:00,65.1,32.9,30.39,NE,45,4.9,6.7,30,0.00,CLR,,0.00,WeatherDisplay:10.37,2013-11-14 15:44:00,
2013-11-14 10:45:00,65.1,32.9,30.39,North,0,3.6,6.7,30,0.00,CLR,,0.00,WeatherDisplay:10.37,2013-11-14 15:45:00,
2013-11-14 10:48:00,65.3,31.3,30.39,North,0,9.2,9.2,28,0.00,CLR,,0.00,WeatherDisplay:10.37,2013-11-14 15:48:00,
2013-11-14 10:49:00,66.0,32.8,30.39,ENE,68,6.9,6.9,29,0.00,CLR,,0.00,WeatherDisplay:10.37,2013-11-14 15:49:00,
2013-11-14 10:50:00,66.4,33.1,30.39,North,0,5.8,5.8,29,0.00,CLR,,0.00,WeatherDisplay:10.37,2013-11-14 15:50:00,
2013-11-14 10:53:00,66.2,32.1,30.39,East,90,6.9,6.9,28,0.00,CLR,,0.00,WeatherDisplay:10.37,2013-11-14 15:53:00,
2013-11-14 10:54:00,66.0,32.0,30.39,NE,45,10.4,10.4,28,0.00,CLR,,0.00,WeatherDisplay:10.37,2013-11-14 15:54:00,
2013-11-14 10:55:00,66.2,32.1,30.39,NE,45,6.2,6.4,28,0.00,CLR,,0.00,WeatherDisplay:10.37,2013-11-14 15:55:00,
2013-11-14 10:58:00,66.4,32.3,30.39,ESE,112,7.6,7.6,28,0.00,CLR,,0.00,WeatherDisplay:10.37,2013-11-14 15:58:00,
2013-11-14 10:59:00,66.4,32.3,30.39,East,90,6.0,6.0,28,0.00,CLR,,0.00,WeatherDisplay:10.37,2013-11-14 15:59:00,
2013-11-14 11:00:00,66.7,32.6,30.39,North,355,6.0,10.0,28,0.00,CLR,CLR,0.00,WeatherDisplay:10.37,2013-11-14 16:00:00,
2013-11-14 11:04:00,66.9,32.7,30.39,ENE,68,6.2,6.2,28,0.00,CLR,,0.00,WeatherDisplay:10.37,2013-11-14 16:04:00,
2013-11-14 11:05:00,67.1,32.0,30.39,West,270,8.1,8.1,27,0.00,CLR,,0.00,WeatherDisplay:10.37,2013-11-14 16:05:00,
2013-11-14 11:06:00,67.1,32.0,30.39,NNW,338,8.1,8.1,27,0.00,CLR,,0.00,WeatherDisplay:10.37,2013-11-14 16:06:00,
2013-11-14 11:09:00,67.3,32.1,30.39,NNE,22,8.5,8.5,27,0.00,CLR,,0.00,WeatherDisplay:10.37,2013-11-14 16:09:00,
2013-11-14 11:10:00,66.9,30.9,30.39,NE,45,9.2,9.2,26,0.00,CLR,,0.00,WeatherDisplay:10.37,2013-11-14 16:10:00,
2013-11-14 11:11:00,67.3,32.1,30.39,North,0,10.4,10.4,27,0.00,CLR,,0.00,WeatherDisplay:10.37,2013-11-14 16:11:00,
2013-11-14 11:14:00,67.5,31.3,30.39,NNE,22,5.8,5.8,26,0.00,CLR,,0.00,WeatherDisplay:10.37,2013-11-14 16:14:00,
2013-11-14 11:15:00,67.8,31.7,30.39,WSW,248,5.8,5.8,26,0.00,CLR,,0.00,WeatherDisplay:10.37,2013-11-14 16:15:00,
2013-11-14 11:16:00,68.2,32.0,30.39,ENE,68,6.9,6.9,26,0.00,CLR,,0.00,WeatherDisplay:10.37,2013-11-14 16:16:00,
2013-11-14 11:19:00,68.2,31.0,30.39,NNW,338,8.1,8.1,25,0.00,CLR,,0.00,WeatherDisplay:10.37,2013-11-14 16:19:00,
2013-11-14 11:20:00,67.8,30.7,30.39,ENE,68,12.5,12.5,25,0.00,CLR,,0.00,WeatherDisplay:10.37,2013-11-14 16:20:00,
2013-11-14 11:21:00,67.5,30.4,30.39,North,0,8.1,9.0,25,0.00,CLR,,0.00,WeatherDisplay:10.37,2013-11-14 16:21:00,
2013-11-14 11:22:00,67.8,30.7,30.39,NNE,22,3.6,9.0,25,0.00,CLR,,0.00,WeatherDisplay:10.37,2013-11-14 16:22:00,
2013-11-14 11:24:00,68.4,31.1,30.39,East,90,7.6,7.6,25,0.00,CLR,,0.00,WeatherDisplay:10.37,2013-11-14 16:24:00,
2013-11-14 11:25:00,68.5,31.3,30.39,East,90,12.7,12.7,25,0.00,CLR,,0.00,WeatherDisplay:10.37,2013-11-14 16:25:00,
2013-11-14 11:26:00,68.5,31.3,30.39,NNE,22,5.8,5.8,25,0.00,CLR,,0.00,WeatherDisplay:10.37,2013-11-14 16:26:00,
2013-11-14 11:27:00,68.4,30.1,30.39,NNW,338,5.4,5.4,24,0.00,CLR,,0.00,WeatherDisplay:10.37,2013-11-14 16:27:00,
2013-11-14 11:29:00,68.5,31.3,30.39,NW,315,6.4,6.4,25,0.00,CLR,,0.00,WeatherDisplay:10.37,2013-11-14 16:29:00,
2013-11-14 11:30:00,68.4,30.1,30.39,North,0,8.1,8.1,24,0.00,CLR,,0.00,WeatherDisplay:10.37,2013-11-14 16:30:00,
2013-11-14 11:31:00,68.2,31.0,30.39,NNW,338,11.5,11.5,25,0.00,CLR,,0.00,WeatherDisplay:10.37,2013-11-14 16:31:00,
2013-11-14 11:33:00,68.5,31.3,30.39,NE,45,6.0,6.0,25,0.00,CLR,,0.00,WeatherDisplay:10.37,2013-11-14 16:33:00,
2013-11-14 11:34:00,68.5,31.3,30.39,ENE,68,8.1,8.1,25,0.00,CLR,,0.00,WeatherDisplay:10.37,2013-11-14 16:34:00,
2013-11-14 11:35:00,68.7,31.4,30.39,NNW,338,15.4,15.4,25,0.00,CLR,,0.00,WeatherDisplay:10.37,2013-11-14 16:35:00,
2013-11-14 11:36:00,68.7,31.4,30.39,North,0,10.4,10.4,25,0.00,CLR,,0.00,WeatherDisplay:10.37,2013-11-14 16:36:00,
2013-11-14 11:37:00,68.4,31.1,30.39,North,0,9.2,9.2,25,0.00,CLR,,0.00,WeatherDisplay:10.37,2013-11-14 16:37:00,
2013-11-14 11:39:00,68.2,31.0,30.39,ENE,68,6.9,6.9,25,0.00,CLR,,0.00,WeatherDisplay:10.37,2013-11-14 16:39:00,
2013-11-14 11:40:00,68.4,31.1,30.39,East,90,8.1,8.1,25,0.00,CLR,,0.00,WeatherDisplay:10.37,2013-11-14 16:40:00,
2013-11-14 11:41:00,68.4,31.1,30.39,ENE,68,11.8,11.8,25,0.00,CLR,,0.00,WeatherDisplay:10.37,2013-11-14 16:41:00,
2013-11-14 11:42:00,68.2,32.0,30.39,East,90,6.9,9.0,26,0.00,CLR,,0.00,WeatherDisplay:10.37,2013-11-14 16:42:00,
2013-11-14 11:44:00,68.4,32.1,30.36,North,0,9.2,9.2,26,0.00,CLR,,0.00,WeatherDisplay:10.37,2013-11-14 16:44:00,
2013-11-14 11:45:00,68.7,32.4,30.36,NE,45,5.4,5.4,26,0.00,CLR,,0.00,WeatherDisplay:10.37,2013-11-14 16:45:00,
2013-11-14 11:46:00,68.9,31.6,30.36,NE,45,10.0,10.0,25,0.00,CLR,,0.00,WeatherDisplay:10.37,2013-11-14 16:46:00,
2013-11-14 11:48:00,68.2,31.0,30.36,NNE,22,8.1,9.2,25,0.00,CLR,,0.00,WeatherDisplay:10.37,2013-11-14 16:48:00,
2013-11-14 11:49:00,67.8,30.7,30.36,North,0,10.4,10.4,25,0.00,CLR,,0.00,WeatherDisplay:10.37,2013-11-14 16:49:00,
2013-11-14 11:50:00,68.0,30.8,30.36,East,90,5.8,6.4,25,0.00,CLR,,0.00,WeatherDisplay:10.37,2013-11-14 16:50:00,
2013-11-14 11:51:00,68.2,31.0,30.36,NE,45,10.0,10.0,25,0.00,CLR,,0.00,WeatherDisplay:10.37,2013-11-14 16:51:00,
2013-11-14 11:54:00,68.4,31.1,30.36,North,0,10.5,10.5,25,0.00,CLR,,0.00,WeatherDisplay:10.37,2013-11-14 16:54:00,
2013-11-14 11:55:00,68.2,31.0,30.36,NNE,22,7.8,8.5,25,0.00,CLR,,0.00,WeatherDisplay:10.37,2013-11-14 16:55:00,
2013-11-14 11:56:00,68.2,31.0,30.36,NNE,22,7.8,8.5,25,0.00,CLR,,0.00,WeatherDisplay:10.37,2013-11-14 16:56:00,
2013-11-14 11:59:00,68.0,31.8,30.33,NNW,338,6.2,6.7,26,0.00,CLR,,0.00,WeatherDisplay:10.37,2013-11-14 16:59:00,
2013-11-14 12:00:00,68.4,32.1,30.33,NNE,22,9.8,9.8,26,0.00,CLR,,0.00,WeatherDisplay:10.37,2013-11-14 17:00:00,
2013-11-14 12:01:00,68.2,32.0,30.33,North,0,3.6,6.4,26,0.00,CLR,,0.00,WeatherDisplay:10.37,2013-11-14 17:01:00,
2013-11-14 12:05:00,68.5,32.3,30.33,NE,45,3.1,7.6,26,0.00,CLR,,0.00,WeatherDisplay:10.37,2013-11-14 17:05:00,
2013-11-14 12:06:00,68.4,32.1,30.33,NW,315,7.6,7.6,26,0.00,CLR,,0.00,WeatherDisplay:10.37,2013-11-14 17:06:00,
2013-11-14 12:07:00,68.5,32.3,30.33,NE,45,4.6,7.4,26,0.00,CLR,,0.00,WeatherDisplay:10.37,2013-11-14 17:07:00,
2013-11-14 12:10:00,68.9,32.6,30.33,NE,45,3.5,4.3,26,0.00,CLR,,0.00,WeatherDisplay:10.37,2013-11-14 17:10:00,
2013-11-14 12:11:00,68.9,31.6,30.33,NE,45,10.4,10.4,25,0.00,CLR,,0.00,WeatherDisplay:10.37,2013-11-14 17:11:00,
2013-11-14 12:12:00,68.9,31.6,30.33,NE,45,8.7,8.7,25,0.00,CLR,,0.00,WeatherDisplay:10.37,2013-11-14 17:12:00,
2013-11-14 12:15:00,69.3,31.9,30.33,NE,45,8.1,8.1,25,0.00,CLR,,0.00,WeatherDisplay:10.37,2013-11-14 17:15:00,
2013-11-14 12:16:00,69.6,32.2,30.33,North,0,3.5,4.3,25,0.00,CLR,,0.00,WeatherDisplay:10.37,2013-11-14 17:16:00,
2013-11-14 12:17:00,69.6,32.2,30.33,NNW,338,8.7,8.7,25,0.00,CLR,,0.00,WeatherDisplay:10.37,2013-11-14 17:17:00,
2013-11-14 12:18:00,69.3,31.9,30.33,North,0,11.5,11.5,25,0.00,CLR,,0.00,WeatherDisplay:10.37,2013-11-14 17:18:00,
2013-11-14 12:20:00,69.3,31.9,30.33,NNW,338,7.6,7.6,25,0.00,CLR,,0.00,WeatherDisplay:10.37,2013-11-14 17:20:00,
2013-11-14 12:21:00,69.3,32.9,30.33,ENE,68,11.2,11.2,26,0.00,CLR,,0.00,WeatherDisplay:10.37,2013-11-14 17:21:00,
2013-11-14 12:22:00,69.3,31.9,30.33,ENE,68,8.1,8.1,25,0.00,CLR,,0.00,WeatherDisplay:10.37,2013-11-14 17:22:00,
2013-11-14 12:23:00,69.3,31.9,30.33,North,0,11.8,11.8,25,0.00,CLR,,0.00,WeatherDisplay:10.37,2013-11-14 17:23:00,
2013-11-14 12:25:00,69.4,32.1,30.33,NNE,22,6.9,6.9,25,0.00,CLR,,0.00,WeatherDisplay:10.37,2013-11-14 17:25:00,
2013-11-14 12:26:00,69.1,30.7,30.33,NE,45,10.5,10.5,24,0.00,CLR,,0.00,WeatherDisplay:10.37,2013-11-14 17:26:00,
2013-11-14 12:27:00,69.1,31.8,30.33,NE,45,10.7,10.7,25,0.00,CLR,,0.00,WeatherDisplay:10.37,2013-11-14 17:27:00,
2013-11-14 12:28:00,68.7,31.4,30.30,North,0,10.0,11.2,25,0.00,CLR,,0.00,WeatherDisplay:10.37,2013-11-14 17:28:00,
2013-11-14 12:29:00,68.7,31.4,30.30,NE,45,9.4,9.8,25,0.00,CLR,,0.00,WeatherDisplay:10.37,2013-11-14 17:29:00,
2013-11-14 12:30:00,68.7,31.4,30.30,NNW,338,5.8,6.0,25,0.00,CLR,,0.00,WeatherDisplay:10.37,2013-11-14 17:30:00,
2013-11-14 12:32:00,68.2,31.0,30.30,NW,315,11.2,11.2,25,0.00,CLR,,0.00,WeatherDisplay:10.37,2013-11-14 17:32:00,
2013-11-14 12:33:00,68.0,30.8,30.30,North,0,5.9,9.4,25,0.00,CLR,,0.00,WeatherDisplay:10.37,2013-11-14 17:33:00,
2013-11-14 12:34:00,68.0,30.8,30.30,NNW,338,8.1,8.1,25,0.00,CLR,,0.00,WeatherDisplay:10.37,2013-11-14 17:34:00,
2013-11-14 12:35:00,68.0,30.8,30.30,NNE,22,8.7,8.7,25,0.00,CLR,,0.00,WeatherDisplay:10.37,2013-11-14 17:35:00,
2013-11-14 12:37:00,68.2,32.0,30.30,NNW,338,6.4,9.0,26,0.00,CLR,,0.00,WeatherDisplay:10.37,2013-11-14 17:37:00,
2013-11-14 12:38:00,68.2,32.0,30.30,NNE,22,8.5,8.5,26,0.00,CLR,,0.00,WeatherDisplay:10.37,2013-11-14 17:38:00,
2013-11-14 12:39:00,68.2,31.0,30.30,NNE,22,8.1,8.1,25,0.00,CLR,,0.00,WeatherDisplay:10.37,2013-11-14 17:39:00,
2013-11-14 12:40:00,68.0,30.8,30.30,North,0,6.2,6.7,25,0.00,CLR,,0.00,WeatherDisplay:10.37,2013-11-14 17:40:00,
2013-11-14 12:41:00,68.0,31.8,30.30,NNE,22,10.4,10.4,26,0.00,CLR,,0.00,WeatherDisplay:10.37,2013-11-14 17:41:00,
2013-11-14 12:42:00,68.0,31.8,30.30,NW,315,5.9,5.9,26,0.00,CLR,,0.00,WeatherDisplay:10.37,2013-11-14 17:42:00,
2013-11-14 12:44:00,67.6,31.5,30.30,North,0,6.9,6.9,26,0.00,CLR,,0.00,WeatherDisplay:10.37,2013-11-14 17:44:00,
2013-11-14 12:45:00,67.5,32.3,30.30,NNE,22,11.5,11.5,27,0.00,CLR,,0.00,WeatherDisplay:10.37,2013-11-14 17:45:00,
2013-11-14 12:46:00,68.0,31.8,30.30,NE,45,3.8,5.4,26,0.00,CLR,,0.00,WeatherDisplay:10.37,2013-11-14 17:46:00,
2013-11-14 12:48:00,68.0,32.7,30.30,North,0,7.6,7.6,27,0.00,CLR,,0.00,WeatherDisplay:10.37,2013-11-14 17:48:00,
2013-11-14 12:49:00,68.2,32.0,30.30,North,0,8.7,8.7,26,0.00,CLR,,0.00,WeatherDisplay:10.37,2013-11-14 17:49:00,
2013-11-14 12:50:00,68.7,32.4,30.30,NE,45,6.9,6.9,26,0.00,CLR,,0.00,WeatherDisplay:10.37,2013-11-14 17:50:00,
2013-11-14 12:51:00,68.9,32.6,30.30,NW,315,8.1,8.1,26,0.00,CLR,,0.00,WeatherDisplay:10.37,2013-11-14 17:51:00,
2013-11-14 12:53:00,68.7,32.4,30.30,NW,315,9.2,9.2,26,0.00,CLR,,0.00,WeatherDisplay:10.37,2013-11-14 17:53:00,
2013-11-14 12:54:00,69.4,33.0,30.30,NE,45,2.9,4.0,26,0.00,CLR,,0.00,WeatherDisplay:10.37,2013-11-14 17:54:00,
2013-11-14 12:55:00,69.4,33.0,30.30,North,0,4.9,4.9,26,0.00,CLR,,0.00,WeatherDisplay:10.37,2013-11-14 17:55:00,
2013-11-14 12:56:00,69.1,32.7,30.30,NW,315,4.6,4.6,26,0.00,CLR,,0.00,WeatherDisplay:10.37,2013-11-14 17:56:00,
2013-11-14 12:58:00,69.3,32.9,30.33,NNE,22,5.8,5.8,26,0.00,CLR,,0.00,WeatherDisplay:10.37,2013-11-14 17:58:00,
2013-11-14 12:59:00,69.1,31.8,30.33,North,0,6.0,7.1,25,0.00,CLR,,0.00,WeatherDisplay:10.37,2013-11-14 17:59:00,
2013-11-14 13:00:00,69.1,31.8,30.33,East,90,3.6,7.4,25,0.00,CLR,,0.00,WeatherDisplay:10.37,2013-11-14 18:00:00,
2013-11-14 13:01:00,69.1,31.8,30.33,NE,45,5.9,5.9,25,0.00,CLR,,0.00,WeatherDisplay:10.37,2013-11-14 18:01:00,
2013-11-14 13:02:00,69.3,31.9,30.33,NE,45,8.1,8.1,25,0.00,CLR,,0.00,WeatherDisplay:10.37,2013-11-14 18:02:00,
2013-11-14 13:03:00,69.3,31.9,30.33,NNE,22,8.1,8.1,25,0.00,CLR,,0.00,WeatherDisplay:10.37,2013-11-14 18:03:00,
2013-11-14 13:04:00,69.4,32.1,30.33,NNW,338,4.9,5.6,25,0.00,CLR,,0.00,WeatherDisplay:10.37,2013-11-14 18:04:00,
2013-11-14 13:06:00,69.6,32.2,30.33,East,90,10.2,10.2,25,0.00,CLR,,0.00,WeatherDisplay:10.37,2013-11-14 18:06:00,
2013-11-14 13:07:00,68.9,31.6,30.33,North,0,4.6,6.4,25,0.00,CLR,,0.00,WeatherDisplay:10.37,2013-11-14 18:07:00,
2013-11-14 13:08:00,68.9,31.6,30.33,NW,315,5.6,6.4,25,0.00,CLR,,0.00,WeatherDisplay:10.37,2013-11-14 18:08:00,
2013-11-14 13:10:00,68.9,31.6,30.33,WNW,292,7.6,7.6,25,0.00,CLR,,0.00,WeatherDisplay:10.37,2013-11-14 18:10:00,
2013-11-14 13:11:00,69.1,31.8,30.33,NNW,338,8.1,8.1,25,0.00,CLR,,0.00,WeatherDisplay:10.37,2013-11-14 18:11:00,
2013-11-14 13:13:00,68.5,31.3,30.33,NNW,338,6.9,7.1,25,0.00,CLR,,0.00,WeatherDisplay:10.37,2013-11-14 18:13:00,
2013-11-14 13:14:00,68.5,31.3,30.30,NE,45,8.5,8.5,25,0.00,CLR,,0.00,WeatherDisplay:10.37,2013-11-14 18:14:00,
2013-11-14 13:15:00,68.5,32.3,30.30,North,0,3.5,5.6,26,0.00,CLR,,0.00,WeatherDisplay:10.37,2013-11-14 18:15:00,
2013-11-14 13:16:00,68.2,32.0,30.30,NE,45,9.2,9.2,26,0.00,CLR,,0.00,WeatherDisplay:10.37,2013-11-14 18:16:00,
2013-11-14 13:17:00,68.2,32.0,30.30,NNW,338,7.4,7.6,26,0.00,CLR,,0.00,WeatherDisplay:10.37,2013-11-14 18:17:00,
2013-11-14 13:18:00,68.2,32.0,30.30,NNW,338,5.9,6.7,26,0.00,CLR,,0.00,WeatherDisplay:10.37,2013-11-14 18:18:00,
2013-11-14 13:19:00,68.2,32.0,30.30,WNW,292,6.0,6.7,26,0.00,CLR,,0.00,WeatherDisplay:10.37,2013-11-14 18:19:00,
2013-11-14 13:20:00,68.5,32.3,30.30,North,0,7.6,7.6,26,0.00,CLR,,0.00,WeatherDisplay:10.37,2013-11-14 18:20:00,
2013-11-14 13:22:00,68.5,32.3,30.30,NE,45,5.8,5.8,26,0.00,CLR,,0.00,WeatherDisplay:10.37,2013-11-14 18:22:00,
2013-11-14 13:23:00,68.0,31.8,30.30,NE,45,15.0,15.0,26,0.00,CLR,,0.00,WeatherDisplay:10.37,2013-11-14 18:23:00,
2013-11-14 13:24:00,68.0,31.8,30.30,NW,315,15.0,15.0,26,0.00,CLR,,0.00,WeatherDisplay:10.37,2013-11-14 18:24:00,
2013-11-14 13:26:00,68.0,31.8,30.30,ESE,112,8.5,8.5,26,0.00,CLR,,0.00,WeatherDisplay:10.37,2013-11-14 18:26:00,
2013-11-14 13:27:00,68.5,32.3,30.30,SE,135,9.2,9.2,26,0.00,CLR,,0.00,WeatherDisplay:10.37,2013-11-14 18:27:00,
2013-11-14 13:28:00,68.2,32.0,30.30,NNE,22,12.5,12.5,26,0.00,CLR,,0.00,WeatherDisplay:10.37,2013-11-14 18:28:00,
2013-11-14 13:29:00,68.7,33.4,30.30,NE,45,4.6,4.6,27,0.00,CLR,,0.00,WeatherDisplay:10.37,2013-11-14 18:29:00,
2013-11-14 13:31:00,68.4,32.1,30.30,NW,315,4.3,7.4,26,0.00,CLR,,0.00,WeatherDisplay:10.37,2013-11-14 18:31:00,
2013-11-14 13:32:00,68.4,32.1,30.30,NNW,338,10.2,10.2,26,0.00,CLR,,0.00,WeatherDisplay:10.37,2013-11-14 18:32:00,
2013-11-14 13:33:00,68.4,32.1,30.30,NNE,22,10.4,10.4,26,0.00,CLR,,0.00,WeatherDisplay:10.37,2013-11-14 18:33:00,
2013-11-14 13:34:00,68.0,31.8,30.30,NNE,22,8.5,8.5,26,0.00,CLR,,0.00,WeatherDisplay:10.37,2013-11-14 18:34:00,
2013-11-14 13:37:00,68.7,32.4,30.30,NNE,22,6.4,6.4,26,0.00,CLR,,0.00,WeatherDisplay:10.37,2013-11-14 18:37:00,
2013-11-14 13:38:00,68.9,32.6,30.30,NE,45,6.2,6.2,26,0.00,CLR,,0.00,WeatherDisplay:10.37,2013-11-14 18:38:00,
2013-11-14 13:39:00,68.7,32.4,30.30,NE,45,6.9,6.9,26,0.00,CLR,,0.00,WeatherDisplay:10.37,2013-11-14 18:39:00,
2013-11-14 13:42:00,68.4,32.1,30.30,NE,45,3.1,4.3,26,0.00,CLR,,0.00,WeatherDisplay:10.37,2013-11-14 18:42:00,
2013-11-14 13:43:00,68.2,32.0,30.30,East,90,2.6,5.4,26,0.00,CLR,,0.00,WeatherDisplay:10.37,2013-11-14 18:43:00,
2013-11-14 13:44:00,68.5,33.2,30.30,East,90,10.7,10.7,27,0.00,CLR,,0.00,WeatherDisplay:10.37,2013-11-14 18:44:00,
2013-11-14 13:45:00,68.4,33.1,30.30,NNW,338,8.1,8.1,27,0.00,CLR,,0.00,WeatherDisplay:10.37,2013-11-14 18:45:00,
2013-11-14 13:47:00,68.5,32.3,30.30,NE,45,6.9,6.9,26,0.00,CLR,,0.00,WeatherDisplay:10.37,2013-11-14 18:47:00,
2013-11-14 13:48:00,68.7,32.4,30.30,NNE,22,6.2,6.2,26,0.00,CLR,,0.00,WeatherDisplay:10.37,2013-11-14 18:48:00,
2013-11-14 13:49:00,68.7,32.4,30.30,ENE,68,7.4,7.4,26,0.00,CLR,,0.00,WeatherDisplay:10.37,2013-11-14 18:49:00,
2013-11-14 13:50:00,68.5,32.3,30.30,NNE,22,10.0,10.0,26,0.00,CLR,,0.00,WeatherDisplay:10.37,2013-11-14 18:50:00,
2013-11-14 13:52:00,68.9,32.6,30.30,NE,45,5.9,5.9,26,0.00,CLR,,0.00,WeatherDisplay:10.37,2013-11-14 18:52:00,
2013-11-14 13:53:00,69.1,32.7,30.30,North,0,5.8,5.8,26,0.00,CLR,,0.00,WeatherDisplay:10.37,2013-11-14 18:53:00,
2013-11-14 13:54:00,68.9,32.6,30.30,East,90,7.1,7.1,26,0.00,CLR,,0.00,WeatherDisplay:10.37,2013-11-14 18:54:00,
2013-11-14 13:55:00,68.9,32.6,30.30,NNE,22,3.8,3.8,26,0.00,CLR,,0.00,WeatherDisplay:10.37,2013-11-14 18:55:00,
2013-11-14 13:58:00,69.3,33.8,30.30,North,0,3.5,3.5,27,0.00,CLR,,0.00,WeatherDisplay:10.37,2013-11-14 18:58:00,
2013-11-14 13:59:00,69.1,32.7,30.30,ESE,112,4.6,4.6,26,0.00,CLR,,0.00,WeatherDisplay:10.37,2013-11-14 18:59:00,
2013-11-14 14:00:00,69.3,32.9,30.30,NNE,22,6.4,6.4,26,0.00,CLR,,0.00,WeatherDisplay:10.37,2013-11-14 19:00:00,
2013-11-14 14:03:00,69.1,32.7,30.30,NNE,22,5.8,7.1,26,0.00,CLR,,0.00,WeatherDisplay:10.37,2013-11-14 19:03:00,
2013-11-14 14:04:00,69.4,33.0,30.30,NNE,22,4.3,4.3,26,0.00,CLR,,0.00,WeatherDisplay:10.37,2013-11-14 19:04:00,
2013-11-14 14:05:00,69.4,33.0,30.30,NE,39,3.0,11.0,26,0.00,CLR,CLR,0.00,WeatherDisplay:10.37,2013-11-14 19:05:00,
2013-11-14 14:08:00,69.8,32.4,30.30,NE,45,7.1,7.1,25,0.00,CLR,,0.00,WeatherDisplay:10.37,2013-11-14 19:08:00,
2013-11-14 14:09:00,69.8,32.4,30.30,East,90,3.8,4.3,25,0.00,CLR,,0.00,WeatherDisplay:10.37,2013-11-14 19:09:00,
2013-11-14 14:10:00,69.8,32.4,30.30,NNE,19,5.0,10.0,25,0.00,CLR,CLR,0.00,WeatherDisplay:10.37,2013-11-14 19:10:00,
2013-11-14 14:11:00,69.8,32.4,30.30,North,0,8.1,8.1,25,0.00,CLR,,0.00,WeatherDisplay:10.37,2013-11-14 19:11:00,
2013-11-14 14:13:00,69.4,32.1,30.30,NNW,338,4.7,8.1,25,0.00,CLR,,0.00,WeatherDisplay:10.37,2013-11-14 19:13:00,
2013-11-14 14:14:00,69.6,32.2,30.30,ENE,68,4.9,4.9,25,0.00,CLR,,0.00,WeatherDisplay:10.37,2013-11-14 19:14:00,
2013-11-14 14:15:00,69.6,32.2,30.30,NE,51,3.0,10.0,25,0.00,CLR,CLR,0.00,WeatherDisplay:10.37,2013-11-14 19:15:00,
2013-11-14 14:16:00,69.6,32.2,30.30,ENE,68,5.8,7.4,25,0.00,CLR,,0.00,WeatherDisplay:10.37,2013-11-14 19:16:00,
2013-11-14 14:19:00,70.2,31.7,30.30,NNE,22,7.6,7.6,24,0.00,CLR,,0.00,WeatherDisplay:10.37,2013-11-14 19:19:00,
2013-11-14 14:20:00,70.2,31.7,30.30,NNW,338,6.9,6.9,24,0.00,CLR,,0.00,WeatherDisplay:10.37,2013-11-14 19:20:00,
2013-11-14 14:21:00,70.0,31.5,30.30,East,90,5.8,5.8,24,0.00,CLR,,0.00,WeatherDisplay:10.37,2013-11-14 19:21:00,
2013-11-14 14:22:00,70.0,31.5,30.30,North,0,6.2,6.2,24,0.00,CLR,,0.00,WeatherDisplay:10.37,2013-11-14 19:22:00,
2013-11-14 14:24:00,69.6,31.2,30.30,North,0,8.1,8.1,24,0.00,CLR,,0.00,WeatherDisplay:10.37,2013-11-14 19:24:00,
2013-11-14 14:25:00,69.1,31.8,30.30,NW,315,5.8,6.7,25,0.00,CLR,,0.00,WeatherDisplay:10.37,2013-11-14 19:25:00,
2013-11-14 14:27:00,68.5,31.3,30.30,North,0,6.0,7.1,25,0.00,CLR,,0.00,WeatherDisplay:10.37,2013-11-14 19:27:00,
2013-11-14 14:29:00,68.5,31.3,30.30,North,0,8.1,8.1,25,0.00,CLR,,0.00,WeatherDisplay:10.37,2013-11-14 19:29:00,
2013-11-14 14:30:00,68.7,31.4,30.30,NNW,338,8.1,8.1,25,0.00,CLR,,0.00,WeatherDisplay:10.37,2013-11-14 19:30:00,
2013-11-14 14:31:00,68.7,32.4,30.30,North,0,10.2,10.2,26,0.00,CLR,,0.00,WeatherDisplay:10.37,2013-11-14 19:31:00,
2013-11-14 14:32:00,68.9,31.6,30.30,North,0,9.2,9.2,25,0.00,CLR,,0.00,WeatherDisplay:10.37,2013-11-14 19:32:00,
2013-11-14 14:35:00,69.3,32.9,30.30,North,0,5.9,5.9,26,0.00,CLR,,0.00,WeatherDisplay:10.37,2013-11-14 19:35:00,
2013-11-14 14:36:00,69.4,33.0,30.30,NNW,338,4.6,4.9,26,0.00,CLR,,0.00,WeatherDisplay:10.37,2013-11-14 19:36:00,
2013-11-14 14:37:00,69.6,33.2,30.30,NE,45,8.5,8.5,26,0.00,CLR,,0.00,WeatherDisplay:10.37,2013-11-14 19:37:00,
2013-11-14 14:38:00,69.6,32.2,30.30,NNE,22,8.1,8.1,25,0.00,CLR,,0.00,WeatherDisplay:10.37,2013-11-14 19:38:00,
2013-11-14 14:40:00,69.8,32.4,30.30,ENE,68,6.9,6.9,25,0.00,CLR,,0.00,WeatherDisplay:10.37,2013-11-14 19:40:00,
2013-11-14 14:41:00,69.4,32.1,30.30,ENE,68,10.4,10.4,25,0.00,CLR,,0.00,WeatherDisplay:10.37,2013-11-14 19:41:00,
2013-11-14 14:43:00,69.1,31.8,30.30,NNE,22,6.2,6.2,25,0.00,CLR,,0.00,WeatherDisplay:10.37,2013-11-14 19:43:00,
2013-11-14 14:45:00,68.5,31.3,30.30,NE,45,6.2,6.7,25,0.00,CLR,,0.00,WeatherDisplay:10.37,2013-11-14 19:45:00,
2013-11-14 14:47:00,68.2,32.0,30.30,NNE,22,5.9,6.9,26,0.00,CLR,,0.00,WeatherDisplay:10.37,2013-11-14 19:47:00,
2013-11-14 14:49:00,68.7,32.4,30.30,NE,45,4.9,4.9,26,0.00,CLR,,0.00,WeatherDisplay:10.37,2013-11-14 19:49:00,
2013-11-14 14:50:00,68.9,33.5,30.30,NE,45,8.1,8.1,27,0.00,CLR,,0.00,WeatherDisplay:10.37,2013-11-14 19:50:00,
2013-11-14 14:51:00,69.1,32.7,30.30,NNW,338,5.9,5.9,26,0.00,CLR,,0.00,WeatherDisplay:10.37,2013-11-14 19:51:00,
2013-11-14 14:52:00,69.3,32.9,30.30,NW,315,4.6,4.6,26,0.00,CLR,,0.00,WeatherDisplay:10.37,2013-11-14 19:52:00,
2013-11-14 14:54:00,69.6,33.2,30.30,NNE,22,7.8,7.8,26,0.00,CLR,,0.00,WeatherDisplay:10.37,2013-11-14 19:54:00,
2013-11-14 14:55:00,69.4,33.0,30.30,North,0,7.6,7.6,26,0.00,CLR,,0.00,WeatherDisplay:10.37,2013-11-14 19:55:00,
2013-11-14 14:56:00,69.3,31.9,30.30,NNE,22,5.8,6.9,25,0.00,CLR,,0.00,WeatherDisplay:10.37,2013-11-14 19:56:00,
2013-11-14 14:57:00,69.1,32.7,30.30,NE,45,3.8,4.9,26,0.00,CLR,,0.00,WeatherDisplay:10.37,2013-11-14 19:57:00,
2013-11-14 14:59:00,69.3,32.9,30.27,NE,45,7.8,7.8,26,0.00,CLR,,0.00,WeatherDisplay:10.37,2013-11-14 19:59:00,
2013-11-14 15:00:00,69.3,32.9,30.27,NE,45,3.6,6.4,26,0.00,CLR,,0.00,WeatherDisplay:10.37,2013-11-14 20:00:00,
2013-11-14 15:01:00,69.8,32.4,30.27,NE,45,5.4,5.4,25,0.00,CLR,,0.00,WeatherDisplay:10.37,2013-11-14 20:01:00,
2013-11-14 15:03:00,69.8,32.4,30.27,NNW,338,5.8,5.8,25,0.00,CLR,,0.00,WeatherDisplay:10.37,2013-11-14 20:03:00,
2013-11-14 15:04:00,69.8,32.4,30.27,ENE,68,4.6,4.6,25,0.00,CLR,,0.00,WeatherDisplay:10.37,2013-11-14 20:04:00,
2013-11-14 15:05:00,69.8,32.4,30.27,NNE,22,6.9,6.9,25,0.00,CLR,,0.00,WeatherDisplay:10.37,2013-11-14 20:05:00,
2013-11-14 15:06:00,68.9,31.6,30.27,North,0,8.1,8.1,25,0.00,CLR,,0.00,WeatherDisplay:10.37,2013-11-14 20:06:00,
2013-11-14 15:07:00,68.5,32.3,30.27,NE,45,8.7,8.7,26,0.00,CLR,,0.00,WeatherDisplay:10.37,2013-11-14 20:07:00,
2013-11-14 15:08:00,68.4,32.1,30.27,North,0,8.1,8.1,26,0.00,CLR,,0.00,WeatherDisplay:10.37,2013-11-14 20:08:00,
2013-11-14 15:10:00,68.0,31.8,30.27,North,0,9.8,9.8,26,0.00,CLR,,0.00,WeatherDisplay:10.37,2013-11-14 20:10:00,
2013-11-14 15:12:00,67.6,32.4,30.27,NNE,22,6.9,6.9,27,0.00,CLR,,0.00,WeatherDisplay:10.37,2013-11-14 20:12:00,
2013-11-14 15:13:00,67.6,32.4,30.27,North,0,2.6,3.8,27,0.00,CLR,,0.00,WeatherDisplay:10.37,2013-11-14 20:13:00,
2013-11-14 15:15:00,67.6,33.3,30.30,North,5,5.0,10.0,28,0.00,CLR,CLR,0.00,WeatherDisplay:10.37,2013-11-14 20:15:00,
2013-11-14 15:16:00,67.5,34.1,30.30,North,0,5.9,5.9,29,0.00,CLR,,0.00,WeatherDisplay:10.37,2013-11-14 20:16:00,
2013-11-14 15:17:00,67.5,34.1,30.30,WNW,292,6.2,6.2,29,0.00,CLR,,0.00,WeatherDisplay:10.37,2013-11-14 20:17:00,
2013-11-14 15:18:00,67.1,34.6,30.30,ENE,68,6.4,6.4,30,0.00,CLR,,0.00,WeatherDisplay:10.37,2013-11-14 20:18:00,
2013-11-14 15:20:00,67.3,34.8,30.30,NNW,338,3.5,5.6,30,0.00,CLR,,0.00,WeatherDisplay:10.37,2013-11-14 20:20:00,
2013-11-14 15:21:00,67.1,35.4,30.30,NNW,338,8.1,8.1,31,0.00,CLR,,0.00,WeatherDisplay:10.37,2013-11-14 20:21:00,
2013-11-14 15:22:00,67.1,35.4,30.30,NE,45,6.9,8.1,31,0.00,CLR,,0.00,WeatherDisplay:10.37,2013-11-14 20:22:00,
2013-11-14 15:23:00,67.1,35.4,30.30,NE,45,9.8,9.8,31,0.00,CLR,,0.00,WeatherDisplay:10.37,2013-11-14 20:23:00,
2013-11-14 15:25:00,67.1,35.4,30.30,NNW,338,6.2,6.2,31,0.00,CLR,,0.00,WeatherDisplay:10.37,2013-11-14 20:25:00,
2013-11-14 15:26:00,66.9,35.3,30.30,NNW,338,8.1,8.1,31,0.00,CLR,,0.00,WeatherDisplay:10.37,2013-11-14 20:26:00,
2013-11-14 15:27:00,66.7,35.1,30.30,NNE,22,4.6,6.0,31,0.00,CLR,,0.00,WeatherDisplay:10.37,2013-11-14 20:27:00,
2013-11-14 15:28:00,66.7,35.9,30.30,NW,315,4.9,4.9,32,0.00,CLR,,0.00,WeatherDisplay:10.37,2013-11-14 20:28:00,
2013-11-14 15:30:00,66.7,36.7,30.27,NNW,338,5.4,5.4,33,0.00,CLR,,0.00,WeatherDisplay:10.37,2013-11-14 20:30:00,
2013-11-14 15:31:00,66.6,36.5,30.27,ENE,68,5.9,5.9,33,0.00,CLR,,0.00,WeatherDisplay:10.37,2013-11-14 20:31:00,
2013-11-14 15:32:00,66.6,36.5,30.27,North,0,5.8,5.8,33,0.00,CLR,,0.00,WeatherDisplay:10.37,2013-11-14 20:32:00,
2013-11-14 15:33:00,66.6,36.5,30.27,ENE,68,3.5,3.6,33,0.00,CLR,,0.00,WeatherDisplay:10.37,2013-11-14 20:33:00,
2013-11-14 15:35:00,66.4,36.4,30.27,NNW,338,6.9,6.9,33,0.00,CLR,,0.00,WeatherDisplay:10.37,2013-11-14 20:35:00,
2013-11-14 15:36:00,66.4,36.4,30.27,NNE,22,7.6,7.6,33,0.00,CLR,,0.00,WeatherDisplay:10.37,2013-11-14 20:36:00,
2013-11-14 15:37:00,66.4,36.4,30.27,North,0,4.6,5.4,33,0.00,CLR,,0.00,WeatherDisplay:10.37,2013-11-14 20:37:00,
2013-11-14 15:38:00,66.4,36.4,30.27,NW,315,3.8,3.8,33,0.00,CLR,,0.00,WeatherDisplay:10.37,2013-11-14 20:38:00,
2013-11-14 15:41:00,66.4,36.4,30.27,NW,315,4.9,4.9,33,0.00,CLR,,0.00,WeatherDisplay:10.37,2013-11-14 20:41:00,
2013-11-14 15:42:00,66.4,36.4,30.27,North,0,6.2,6.2,33,0.00,CLR,,0.00,WeatherDisplay:10.37,2013-11-14 20:42:00,
2013-11-14 15:43:00,66.0,36.8,30.27,NNW,338,5.8,5.8,34,0.00,CLR,,0.00,WeatherDisplay:10.37,2013-11-14 20:43:00,
2013-11-14 15:44:00,66.0,36.8,30.27,NW,315,6.2,6.2,34,0.00,CLR,,0.00,WeatherDisplay:10.37,2013-11-14 20:44:00,
2013-11-14 15:46:00,66.2,37.0,30.27,North,0,5.4,5.4,34,0.00,CLR,,0.00,WeatherDisplay:10.37,2013-11-14 20:46:00,
2013-11-14 15:47:00,66.2,37.0,30.27,North,0,2.9,3.8,34,0.00,CLR,,0.00,WeatherDisplay:10.37,2013-11-14 20:47:00,
2013-11-14 15:49:00,66.2,37.0,30.27,NNW,338,1.4,4.3,34,0.00,CLR,,0.00,WeatherDisplay:10.37,2013-11-14 20:49:00,
2013-11-14 15:51:00,65.8,36.7,30.27,North,0,10.4,10.4,34,0.00,CLR,,0.00,WeatherDisplay:10.37,2013-11-14 20:51:00,
2013-11-14 15:52:00,65.7,36.5,30.27,NNE,22,11.5,11.5,34,0.00,CLR,,0.00,WeatherDisplay:10.37,2013-11-14 20:52:00,
2013-11-14 15:54:00,65.7,37.2,30.27,NNE,22,6.9,6.9,35,0.00,CLR,,0.00,WeatherDisplay:10.37,2013-11-14 20:54:00,
2013-11-14 15:56:00,65.8,37.4,30.27,NNE,22,4.0,5.6,35,0.00,CLR,,0.00,WeatherDisplay:10.37,2013-11-14 20:56:00,
2013-11-14 15:57:00,66.0,37.6,30.27,ENE,68,4.0,4.0,35,0.00,CLR,,0.00,WeatherDisplay:10.37,2013-11-14 20:57:00,
2013-11-14 15:58:00,66.0,37.6,30.27,NE,45,4.0,4.3,35,0.00,CLR,,0.00,WeatherDisplay:10.37,2013-11-14 20:58:00,
2013-11-14 15:59:00,66.0,37.6,30.27,North,0,5.8,5.8,35,0.00,CLR,,0.00,WeatherDisplay:10.37,2013-11-14 20:59:00,
2013-11-14 16:00:00,66.0,37.6,30.27,East,90,5.8,5.8,35,0.00,CLR,,0.00,WeatherDisplay:10.37,2013-11-14 21:00:00,
2013-11-14 16:01:00,66.0,37.6,30.27,East,90,6.9,6.9,35,0.00,CLR,,0.00,WeatherDisplay:10.37,2013-11-14 21:01:00,
2013-11-14 16:03:00,66.0,37.6,30.27,NNE,22,2.9,4.7,35,0.00,CLR,,0.00,WeatherDisplay:10.37,2013-11-14 21:03:00,
2013-11-14 16:04:00,65.8,36.7,30.27,ENE,68,7.6,7.6,34,0.00,CLR,,0.00,WeatherDisplay:10.37,2013-11-14 21:04:00,
2013-11-14 16:05:00,65.8,37.4,30.27,NE,45,5.8,5.8,35,0.00,CLR,,0.00,WeatherDisplay:10.37,2013-11-14 21:05:00,
2013-11-14 16:06:00,65.8,37.4,30.27,NNW,338,5.8,5.8,35,0.00,CLR,,0.00,WeatherDisplay:10.37,2013-11-14 21:06:00,
2013-11-14 16:08:00,65.5,37.1,30.27,NW,315,8.7,8.7,35,0.00,CLR,,0.00,WeatherDisplay:10.37,2013-11-14 21:08:00,
2013-11-14 16:10:00,65.3,36.9,30.27,NNE,22,6.0,6.9,35,0.00,CLR,,0.00,WeatherDisplay:10.37,2013-11-14 21:10:00,
2013-11-14 16:11:00,65.1,36.8,30.27,WNW,292,8.1,8.1,35,0.00,CLR,,0.00,WeatherDisplay:10.37,2013-11-14 21:11:00,
2013-11-14 16:13:00,64.8,37.2,30.27,ENE,68,11.5,11.5,36,0.00,CLR,,0.00,WeatherDisplay:10.37,2013-11-14 21:13:00,
2013-11-14 16:15:00,64.8,37.2,30.27,NE,45,7.4,7.4,36,0.00,CLR,,0.00,WeatherDisplay:10.37,2013-11-14 21:15:00,
2013-11-14 16:17:00,64.6,37.0,30.27,NNE,22,5.8,5.8,36,0.00,CLR,,0.00,WeatherDisplay:10.37,2013-11-14 21:17:00,
2013-11-14 16:18:00,64.4,36.8,30.27,North,0,9.7,9.7,36,0.00,CLR,,0.00,WeatherDisplay:10.37,2013-11-14 21:18:00,
2013-11-14 16:19:00,64.4,36.8,30.27,NNE,22,5.6,5.6,36,0.00,CLR,,0.00,WeatherDisplay:10.37,2013-11-14 21:19:00,
2013-11-14 16:20:00,64.2,37.4,30.27,WNW,292,3.5,5.4,37,0.00,CLR,,0.00,WeatherDisplay:10.37,2013-11-14 21:20:00,
2013-11-14 16:22:00,63.9,37.7,30.27,NE,45,8.1,8.1,38,0.00,CLR,,0.00,WeatherDisplay:10.37,2013-11-14 21:22:00,
2013-11-14 16:23:00,63.9,37.7,30.27,NW,315,6.9,6.9,38,0.00,CLR,,0.00,WeatherDisplay:10.37,2013-11-14 21:23:00,
2013-11-14 16:24:00,63.9,37.7,30.27,NNW,338,4.3,4.3,38,0.00,CLR,,0.00,WeatherDisplay:10.37,2013-11-14 21:24:00,
2013-11-14 16:25:00,63.9,37.7,30.27,NNW,338,2.6,3.3,38,0.00,CLR,,0.00,WeatherDisplay:10.37,2013-11-14 21:25:00,
2013-11-14 16:27:00,63.7,38.2,30.27,NNW,338,5.8,5.8,39,0.00,CLR,,0.00,WeatherDisplay:10.37,2013-11-14 21:27:00,
2013-11-14 16:28:00,63.5,38.7,30.24,NE,45,5.6,5.6,40,0.00,CLR,,0.00,WeatherDisplay:10.37,2013-11-14 21:28:00,
2013-11-14 16:29:00,63.3,39.2,30.24,NNE,22,9.4,9.4,41,0.00,CLR,,0.00,WeatherDisplay:10.37,2013-11-14 21:29:00,
2013-11-14 16:30:00,63.5,40.0,30.24,NNW,338,6.9,6.9,42,0.00,CLR,,0.00,WeatherDisplay:10.37,2013-11-14 21:30:00,
2013-11-14 16:31:00,63.3,39.8,30.24,NNE,22,6.9,6.9,42,0.00,CLR,,0.00,WeatherDisplay:10.37,2013-11-14 21:31:00,
2013-11-14 16:32:00,63.3,39.8,30.24,ENE,68,7.4,7.4,42,0.00,CLR,,0.00,WeatherDisplay:10.37,2013-11-14 21:32:00,
2013-11-14 16:33:00,63.3,40.4,30.24,NNW,338,5.8,5.8,43,0.00,CLR,,0.00,WeatherDisplay:10.37,2013-11-14 21:33:00,
2013-11-14 16:34:00,63.3,40.4,30.24,NNE,22,3.8,3.8,43,0.00,CLR,,0.00,WeatherDisplay:10.37,2013-11-14 21:34:00,
2013-11-14 16:35:00,63.3,40.4,30.24,NW,315,3.5,3.6,43,0.00,CLR,,0.00,WeatherDisplay:10.37,2013-11-14 21:35:00,
2013-11-14 16:36:00,63.3,40.4,30.24,NNW,338,2.3,2.4,43,0.00,CLR,,0.00,WeatherDisplay:10.37,2013-11-14 21:36:00,
2013-11-14 16:37:00,63.3,40.4,30.24,NNE,22,1.4,1.6,43,0.00,CLR,,0.00,WeatherDisplay:10.37,2013-11-14 21:37:00,
2013-11-14 16:38:00,63.3,40.4,30.24,North,0,4.9,4.9,43,0.00,CLR,,0.00,WeatherDisplay:10.37,2013-11-14 21:38:00,
2013-11-14 16:39:00,63.1,40.3,30.24,North,0,4.6,4.6,43,0.00,CLR,,0.00,WeatherDisplay:10.37,2013-11-14 21:39:00,
2013-11-14 16:40:00,63.0,40.7,30.24,ENE,68,5.8,6.4,44,0.00,CLR,,0.00,WeatherDisplay:10.37,2013-11-14 21:40:00,
2013-11-14 16:42:00,63.0,40.7,30.24,NNW,338,2.4,2.4,44,0.00,CLR,,0.00,WeatherDisplay:10.37,2013-11-14 21:42:00,
2013-11-14 16:43:00,63.0,40.7,30.24,NNW,338,2.4,2.4,44,0.00,CLR,,0.00,WeatherDisplay:10.37,2013-11-14 21:43:00,
2013-11-14 16:44:00,63.0,40.7,30.27,ENE,68,4.6,4.6,44,0.00,CLR,,0.00,WeatherDisplay:10.37,2013-11-14 21:44:00,
2013-11-14 16:46:00,63.0,41.3,30.27,NNE,22,6.9,6.9,45,0.00,CLR,,0.00,WeatherDisplay:10.37,2013-11-14 21:46:00,
2013-11-14 16:48:00,62.8,41.7,30.27,NNE,22,7.6,7.6,46,0.00,CLR,,0.00,WeatherDisplay:10.37,2013-11-14 21:48:00,
2013-11-14 16:49:00,62.8,41.7,30.27,NE,45,6.9,6.9,46,0.00,CLR,,0.00,WeatherDisplay:10.37,2013-11-14 21:49:00,
2013-11-14 16:50:00,62.8,41.7,30.27,North,2,6.0,10.0,46,0.00,CLR,CLR,0.00,WeatherDisplay:10.37,2013-11-14 21:50:00,
2013-11-14 16:52:00,62.8,42.2,30.27,North,0,9.2,9.2,47,0.00,CLR,,0.00,WeatherDisplay:10.37,2013-11-14 21:52:00,
2013-11-14 16:53:00,62.6,42.1,30.27,SW,225,7.1,7.1,47,0.00,CLR,,0.00,WeatherDisplay:10.37,2013-11-14 21:53:00,
2013-11-14 16:55:00,62.6,42.1,30.27,NE,45,6.9,6.9,47,0.00,CLR,,0.00,WeatherDisplay:10.37,2013-11-14 21:55:00,
2013-11-14 16:57:00,62.6,42.6,30.27,NNE,22,4.7,6.7,48,0.00,CLR,,0.00,WeatherDisplay:10.37,2013-11-14 21:57:00,
2013-11-14 16:58:00,62.6,42.6,30.27,NNW,338,6.0,6.0,48,0.00,CLR,,0.00,WeatherDisplay:10.37,2013-11-14 21:58:00,
2013-11-14 17:00:00,62.4,42.5,30.27,NE,45,3.5,3.5,48,0.00,CLR,,0.00,WeatherDisplay:10.37,2013-11-14 22:00:00,
2013-11-14 17:01:00,62.4,42.5,30.27,NNE,22,6.4,6.4,48,0.00,CLR,,0.00,WeatherDisplay:10.37,2013-11-14 22:01:00,
2013-11-14 17:02:00,62.4,43.0,30.27,North,0,6.0,6.0,49,0.00,CLR,,0.00,WeatherDisplay:10.37,2013-11-14 22:02:00,
2013-11-14 17:03:00,62.4,43.0,30.27,NNE,22,6.9,6.9,49,0.00,CLR,,0.00,WeatherDisplay:10.37,2013-11-14 22:03:00,
2013-11-14 17:04:00,62.2,42.8,30.27,NE,45,2.6,2.9,49,0.00,CLR,,0.00,WeatherDisplay:10.37,2013-11-14 22:04:00,
2013-11-14 17:05:00,62.2,42.8,30.27,North,0,7.4,7.4,49,0.00,CLR,,0.00,WeatherDisplay:10.37,2013-11-14 22:05:00,
2013-11-14 17:06:00,62.2,42.8,30.27,NNE,22,5.8,5.8,49,0.00,CLR,,0.00,WeatherDisplay:10.37,2013-11-14 22:06:00,
2013-11-14 17:08:00,62.2,43.4,30.27,ENE,68,3.5,4.5,50,0.00,CLR,,0.00,WeatherDisplay:10.37,2013-11-14 22:08:00,
2013-11-14 17:09:00,62.2,43.4,30.27,North,0,3.3,3.3,50,0.00,CLR,,0.00,WeatherDisplay:10.37,2013-11-14 22:09:00,
2013-11-14 17:11:00,62.2,44.4,30.27,North,0,4.9,4.9,52,0.00,CLR,,0.00,WeatherDisplay:10.37,2013-11-14 22:11:00,
2013-11-14 17:12:00,62.1,44.2,30.27,NE,45,5.8,5.8,52,0.00,CLR,,0.00,WeatherDisplay:10.37,2013-11-14 22:12:00,
2013-11-14 17:13:00,62.1,44.2,30.27,ENE,68,5.8,5.8,52,0.00,CLR,,0.00,WeatherDisplay:10.37,2013-11-14 22:13:00,
2013-11-14 17:14:00,62.1,44.2,30.27,North,0,3.6,3.6,52,0.00,CLR,,0.00,WeatherDisplay:10.37,2013-11-14 22:14:00,
2013-11-14 17:15:00,62.1,44.2,30.27,NNE,28,3.0,7.0,52,0.00,CLR,CLR,0.00,WeatherDisplay:10.37,2013-11-14 22:15:00,
2013-11-14 17:16:00,62.1,44.2,30.27,NE,45,3.5,3.5,52,0.00,CLR,,0.00,WeatherDisplay:10.37,2013-11-14 22:16:00,
2013-11-14 17:18:00,62.1,43.7,30.27,North,0,3.8,3.8,51,0.00,CLR,,0.00,WeatherDisplay:10.37,2013-11-14 22:18:00,
2013-11-14 17:19:00,61.9,43.5,30.27,NW,315,2.3,2.4,51,0.00,CLR,,0.00,WeatherDisplay:10.37,2013-11-14 22:19:00,
2013-11-14 17:21:00,61.9,44.1,30.27,NE,45,4.6,4.6,52,0.00,CLR,,0.00,WeatherDisplay:10.37,2013-11-14 22:21:00,
2013-11-14 17:23:00,61.9,44.1,30.27,NNE,22,3.5,3.5,52,0.00,CLR,,0.00,WeatherDisplay:10.37,2013-11-14 22:23:00,
2013-11-14 17:24:00,61.9,44.1,30.27,North,0,2.9,2.9,52,0.00,CLR,,0.00,WeatherDisplay:10.37,2013-11-14 22:24:00,
2013-11-14 17:25:00,61.9,44.1,30.27,NNE,18,1.0,6.0,52,0.00,CLR,CLR,0.00,WeatherDisplay:10.37,2013-11-14 22:25:00,
2013-11-14 17:26:00,61.7,44.4,30.27,NW,315,4.9,4.9,53,0.00,CLR,,0.00,WeatherDisplay:10.37,2013-11-14 22:26:00,
2013-11-14 17:28:00,61.7,44.9,30.30,North,0,4.9,4.9,54,0.00,CLR,,0.00,WeatherDisplay:10.37,2013-11-14 22:28:00,
2013-11-14 17:29:00,61.7,44.9,30.30,North,0,6.9,6.9,54,0.00,CLR,,0.00,WeatherDisplay:10.37,2013-11-14 22:29:00,
2013-11-14 17:30:00,61.5,44.7,30.30,North,0,3.5,3.5,54,0.00,CLR,,0.00,WeatherDisplay:10.37,2013-11-14 22:30:00,
2013-11-14 17:31:00,61.5,44.7,30.30,NNW,338,5.8,5.8,54,0.00,CLR,,0.00,WeatherDisplay:10.37,2013-11-14 22:31:00,
2013-11-14 17:32:00,61.5,44.7,30.30,ENE,68,5.8,5.8,54,0.00,CLR,,0.00,WeatherDisplay:10.37,2013-11-14 22:32:00,
2013-11-14 17:33:00,61.5,44.7,30.30,North,0,5.6,5.6,54,0.00,CLR,,0.00,WeatherDisplay:10.37,2013-11-14 22:33:00,
2013-11-14 17:35:00,61.5,45.2,30.30,North,0,6.9,6.9,55,0.00,CLR,,0.00,WeatherDisplay:10.37,2013-11-14 22:35:00,
2013-11-14 17:37:00,61.5,45.2,30.30,NNW,338,3.8,3.8,55,0.00,CLR,,0.00,WeatherDisplay:10.37,2013-11-14 22:37:00,
2013-11-14 17:38:00,61.5,45.2,30.30,NNE,22,3.6,3.6,55,0.00,CLR,,0.00,WeatherDisplay:10.37,2013-11-14 22:38:00,
2013-11-14 17:40:00,61.3,45.0,30.30,WNW,292,2.4,2.4,55,0.00,CLR,,0.00,WeatherDisplay:10.37,2013-11-14 22:40:00,
2013-11-14 17:42:00,61.3,45.0,30.30,NW,315,3.8,3.8,55,0.00,CLR,,0.00,WeatherDisplay:10.37,2013-11-14 22:42:00,
2013-11-14 17:44:00,61.3,44.5,30.27,North,0,2.0,2.0,54,0.00,CLR,,0.00,WeatherDisplay:10.37,2013-11-14 22:44:00,
2013-11-14 17:45:00,61.3,45.0,30.27,North,0,4.3,4.3,55,0.00,CLR,,0.00,WeatherDisplay:10.37,2013-11-14 22:45:00,
2013-11-14 17:46:00,61.3,45.0,30.27,North,0,3.6,3.6,55,0.00,CLR,,0.00,WeatherDisplay:10.37,2013-11-14 22:46:00,
2013-11-14 17:47:00,61.3,45.5,30.27,NNE,22,3.8,3.8,56,0.00,CLR,,0.00,WeatherDisplay:10.37,2013-11-14 22:47:00,
2013-11-14 17:49:00,61.3,45.5,30.27,North,0,4.6,4.6,56,0.00,CLR,,0.00,WeatherDisplay:10.37,2013-11-14 22:49:00,
2013-11-14 17:50:00,61.3,45.5,30.27,North,0,3.6,3.6,56,0.00,CLR,,0.00,WeatherDisplay:10.37,2013-11-14 22:50:00,
2013-11-14 17:51:00,61.2,45.3,30.27,North,0,4.0,4.0,56,0.00,CLR,,0.00,WeatherDisplay:10.37,2013-11-14 22:51:00,
2013-11-14 17:52:00,61.2,45.3,30.27,NNW,338,5.8,5.8,56,0.00,CLR,,0.00,WeatherDisplay:10.37,2013-11-14 22:52:00,
2013-11-14 17:53:00,61.2,45.3,30.27,NNW,338,5.8,5.8,56,0.00,CLR,,0.00,WeatherDisplay:10.37,2013-11-14 22:53:00,
2013-11-14 17:54:00,61.2,45.8,30.27,NE,45,4.6,4.6,57,0.00,CLR,,0.00,WeatherDisplay:10.37,2013-11-14 22:54:00,
2013-11-14 17:55:00,61.2,45.8,30.27,NE,45,5.8,5.8,57,0.00,CLR,,0.00,WeatherDisplay:10.37,2013-11-14 22:55:00,
2013-11-14 17:56:00,61.2,45.8,30.27,North,0,5.8,5.8,57,0.00,CLR,,0.00,WeatherDisplay:10.37,2013-11-14 22:56:00,
2013-11-14 17:58:00,61.2,46.3,30.27,NW,315,3.5,4.3,58,0.00,CLR,,0.00,WeatherDisplay:10.37,2013-11-14 22:58:00,
2013-11-14 17:59:00,61.2,45.8,30.30,NW,315,3.8,3.8,57,0.00,CLR,,0.00,WeatherDisplay:10.37,2013-11-14 22:59:00,
2013-11-14 18:00:00,61.2,46.3,30.30,North,0,2.3,3.1,58,0.00,CLR,,0.00,WeatherDisplay:10.37,2013-11-14 23:00:00,
2013-11-14 18:01:00,61.2,45.8,30.30,NNE,22,2.9,2.9,57,0.00,CLR,,0.00,WeatherDisplay:10.37,2013-11-14 23:01:00,
2013-11-14 18:02:00,61.2,46.3,30.30,North,0,5.4,5.4,58,0.00,CLR,,0.00,WeatherDisplay:10.37,2013-11-14 23:02:00,
2013-11-14 18:03:00,61.0,46.1,30.30,NNE,22,5.8,5.8,58,0.00,CLR,,0.00,WeatherDisplay:10.37,2013-11-14 23:03:00,
2013-11-14 18:05:00,61.0,46.1,30.30,NNE,22,3.5,3.5,58,0.00,CLR,,0.00,WeatherDisplay:10.37,2013-11-14 23:05:00,
2013-11-14 18:06:00,61.0,45.6,30.30,NNW,338,3.5,3.5,57,0.00,CLR,,0.00,WeatherDisplay:10.37,2013-11-14 23:06:00,
2013-11-14 18:07:00,61.0,45.6,30.30,ENE,68,3.5,3.5,57,0.00,CLR,,0.00,WeatherDisplay:10.37,2013-11-14 23:07:00,
2013-11-14 18:08:00,61.0,46.1,30.30,NNW,338,3.1,3.1,58,0.00,CLR,,0.00,WeatherDisplay:10.37,2013-11-14 23:08:00,
2013-11-14 18:10:00,61.0,46.1,30.30,NNW,338,4.3,4.3,58,0.00,CLR,,0.00,WeatherDisplay:10.37,2013-11-14 23:10:00,
2013-11-14 18:11:00,61.0,46.5,30.30,NNE,22,5.4,5.4,59,0.00,CLR,,0.00,WeatherDisplay:10.37,2013-11-14 23:11:00,
2013-11-14 18:12:00,61.0,46.5,30.30,North,0,4.7,4.7,59,0.00,CLR,,0.00,WeatherDisplay:10.37,2013-11-14 23:12:00,
2013-11-14 18:13:00,61.0,46.5,30.27,North,0,3.5,3.8,59,0.00,CLR,,0.00,WeatherDisplay:10.37,2013-11-14 23:13:00,
2013-11-14 18:15:00,61.0,46.5,30.27,NNW,348,2.0,5.0,59,0.00,CLR,CLR,0.00,WeatherDisplay:10.37,2013-11-14 23:15:00,
2013-11-14 18:16:00,61.0,46.5,30.27,NW,315,5.4,5.4,59,0.00,CLR,,0.00,WeatherDisplay:10.37,2013-11-14 23:16:00,
2013-11-14 18:17:00,61.0,46.5,30.27,North,0,4.3,4.5,59,0.00,CLR,,0.00,WeatherDisplay:10.37,2013-11-14 23:17:00,
2013-11-14 18:19:00,61.0,46.5,30.27,North,0,3.3,3.3,59,0.00,CLR,,0.00,WeatherDisplay:10.37,2013-11-14 23:19:00,
2013-11-14 18:20:00,61.0,46.5,30.27,NNE,24,1.0,5.0,59,0.00,CLR,CLR,0.00,WeatherDisplay:10.37,2013-11-14 23:20:00,
2013-11-14 18:21:00,61.0,46.5,30.27,North,0,4.6,4.6,59,0.00,CLR,,0.00,WeatherDisplay:10.37,2013-11-14 23:21:00,
2013-11-14 18:22:00,61.0,46.5,30.27,North,0,3.5,3.5,59,0.00,CLR,,0.00,WeatherDisplay:10.37,2013-11-14 23:22:00,
2013-11-14 18:23:00,60.8,46.4,30.27,NNW,338,3.8,3.8,59,0.00,CLR,,0.00,WeatherDisplay:10.37,2013-11-14 23:23:00,
2013-11-14 18:24:00,60.8,46.8,30.27,North,0,6.9,6.9,60,0.00,CLR,,0.00,WeatherDisplay:10.37,2013-11-14 23:24:00,
2013-11-14 18:25:00,60.8,46.8,30.27,NW,315,7.1,7.1,60,0.00,CLR,,0.00,WeatherDisplay:10.37,2013-11-14 23:25:00,
2013-11-14 18:26:00,60.8,46.8,30.27,NE,45,4.6,4.6,60,0.00,CLR,,0.00,WeatherDisplay:10.37,2013-11-14 23:26:00,
2013-11-14 18:27:00,60.8,46.8,30.27,ENE,68,4.9,4.9,60,0.00,CLR,,0.00,WeatherDisplay:10.37,2013-11-14 23:27:00,
2013-11-14 18:28:00,60.8,46.8,30.27,NE,45,2.3,2.6,60,0.00,CLR,,0.00,WeatherDisplay:10.37,2013-11-14 23:28:00,
2013-11-14 18:30:00,60.8,47.3,30.27,NNE,22,6.2,6.2,61,0.00,CLR,,0.00,WeatherDisplay:10.37,2013-11-14 23:30:00,
2013-11-14 18:31:00,60.8,47.3,30.27,North,0,6.2,6.2,61,0.00,CLR,,0.00,WeatherDisplay:10.37,2013-11-14 23:31:00,
2013-11-14 18:32:00,60.8,47.3,30.27,North,0,5.8,5.9,61,0.00,CLR,,0.00,WeatherDisplay:10.37,2013-11-14 23:32:00,
2013-11-14 18:33:00,60.8,47.3,30.27,NW,315,3.5,3.5,61,0.00,CLR,,0.00,WeatherDisplay:10.37,2013-11-14 23:33:00,
2013-11-14 18:35:00,60.8,46.8,30.27,NE,45,4.9,4.9,60,0.00,CLR,,0.00,WeatherDisplay:10.37,2013-11-14 23:35:00,
2013-11-14 18:36:00,60.8,46.8,30.27,NW,315,3.1,3.1,60,0.00,CLR,,0.00,WeatherDisplay:10.37,2013-11-14 23:36:00,
2013-11-14 18:37:00,60.8,46.8,30.27,NNW,338,3.5,3.5,60,0.00,CLR,,0.00,WeatherDisplay:10.37,2013-11-14 23:37:00,
2013-11-14 18:38:00,60.8,46.8,30.27,NE,45,4.6,4.6,60,0.00,CLR,,0.00,WeatherDisplay:10.37,2013-11-14 23:38:00,
2013-11-14 18:40:00,60.8,47.3,30.27,NNW,338,5.8,5.8,61,0.00,CLR,,0.00,WeatherDisplay:10.37,2013-11-14 23:40:00,
2013-11-14 18:42:00,60.8,46.8,30.27,North,0,7.6,7.6,60,0.00,CLR,,0.00,WeatherDisplay:10.37,2013-11-14 23:42:00,
2013-11-14 18:43:00,60.8,47.3,30.27,North,0,4.6,5.4,61,0.00,CLR,,0.00,WeatherDisplay:10.37,2013-11-14 23:43:00,
2013-11-14 18:46:00,60.6,47.1,30.27,North,0,4.0,4.0,61,0.00,CLR,,0.00,WeatherDisplay:10.37,2013-11-14 23:46:00,
2013-11-14 18:47:00,60.6,47.1,30.27,NNW,338,4.0,4.0,61,0.00,CLR,,0.00,WeatherDisplay:10.37,2013-11-14 23:47:00,
2013-11-14 18:48:00,60.6,47.1,30.27,North,0,5.9,5.9,61,0.00,CLR,,0.00,WeatherDisplay:10.37,2013-11-14 23:48:00,
2013-11-14 18:51:00,60.4,47.4,30.27,North,0,4.6,4.6,62,0.00,CLR,,0.00,WeatherDisplay:10.37,2013-11-14 23:51:00,
2013-11-14 18:52:00,60.4,47.4,30.27,North,0,3.6,3.6,62,0.00,CLR,,0.00,WeatherDisplay:10.37,2013-11-14 23:52:00,
2013-11-14 18:53:00,60.4,47.4,30.27,NNW,338,3.5,3.6,62,0.00,CLR,,0.00,WeatherDisplay:10.37,2013-11-14 23:53:00,
2013-11-14 18:54:00,60.4,47.4,30.27,ENE,68,2.9,3.6,62,0.00,CLR,,0.00,WeatherDisplay:10.37,2013-11-14 23:54:00,
2013-11-14 18:56:00,60.3,47.2,30.27,ESE,112,2.3,2.6,62,0.00,CLR,,0.00,WeatherDisplay:10.37,2013-11-14 23:56:00,
2013-11-14 18:57:00,60.3,47.2,30.27,North,0,3.3,3.3,62,0.00,CLR,,0.00,WeatherDisplay:10.37,2013-11-14 23:57:00,
2013-11-14 18:58:00,60.3,47.2,30.30,NNE,22,3.1,3.1,62,0.00,CLR,,0.00,WeatherDisplay:10.37,2013-11-14 23:58:00,
2013-11-14 18:59:00,60.3,47.2,30.30,NNE,22,4.0,4.0,62,0.00,CLR,,0.00,WeatherDisplay:10.37,2013-11-14 23:59:00,
2013-11-14 19:01:00,60.3,48.0,30.30,North,0,4.9,4.9,64,0.00,CLR,,0.00,WeatherDisplay:10.37,2013-11-15 00:01:00,
2013-11-14 19:03:00,60.1,47.4,30.30,East,90,2.6,3.8,63,0.00,CLR,,0.00,WeatherDisplay:10.37,2013-11-15 00:03:00,
2013-11-14 19:04:00,60.1,47.4,30.30,North,0,2.6,2.6,63,0.00,CLR,,0.00,WeatherDisplay:10.37,2013-11-15 00:04:00,
2013-11-14 19:06:00,60.1,47.9,30.30,NW,315,3.5,4.0,64,0.00,CLR,,0.00,WeatherDisplay:10.37,2013-11-15 00:06:00,
2013-11-14 19:08:00,60.1,47.9,30.30,NW,315,2.3,2.3,64,0.00,CLR,,0.00,WeatherDisplay:10.37,2013-11-15 00:08:00,
2013-11-14 19:09:00,60.1,47.9,30.30,North,0,2.6,2.6,64,0.00,CLR,,0.00,WeatherDisplay:10.37,2013-11-15 00:09:00,
2013-11-14 19:10:00,60.1,47.9,30.30,North,0,3.5,3.6,64,0.00,CLR,,0.00,WeatherDisplay:10.37,2013-11-15 00:10:00,
2013-11-14 19:11:00,60.1,47.9,30.30,North,0,4.0,4.0,64,0.00,CLR,,0.00,WeatherDisplay:10.37,2013-11-15 00:11:00,
2013-11-14 19:12:00,60.1,47.9,30.30,NNE,22,3.5,3.5,64,0.00,CLR,,0.00,WeatherDisplay:10.37,2013-11-15 00:12:00,
2013-11-14 19:13:00,60.1,47.9,30.30,NNW,338,3.1,3.1,64,0.00,CLR,,0.00,WeatherDisplay:10.37,2013-11-15 00:13:00,
2013-11-14 19:14:00,60.1,47.9,30.27,NW,315,3.5,3.5,64,0.00,CLR,,0.00,WeatherDisplay:10.37,2013-11-15 00:14:00,
2013-11-14 19:15:00,60.1,48.3,30.27,North,0,2.9,3.3,65,0.00,CLR,,0.00,WeatherDisplay:10.37,2013-11-15 00:15:00,
2013-11-14 19:17:00,60.1,48.3,30.27,North,0,4.9,4.9,65,0.00,CLR,,0.00,WeatherDisplay:10.37,2013-11-15 00:17:00,
2013-11-14 19:18:00,60.1,48.3,30.27,North,0,4.6,4.6,65,0.00,CLR,,0.00,WeatherDisplay:10.37,2013-11-15 00:18:00,
2013-11-14 19:19:00,59.9,48.5,30.27,West,270,5.8,5.8,66,0.00,CLR,,0.00,WeatherDisplay:10.37,2013-11-15 00:19:00,
2013-11-14 19:20:00,59.9,48.1,30.27,NNW,338,3.5,3.5,65,0.00,CLR,,0.00,WeatherDisplay:10.37,2013-11-15 00:20:00,
2013-11-14 19:22:00,59.7,47.9,30.27,NNE,22,2.6,2.6,65,0.00,CLR,,0.00,WeatherDisplay:10.37,2013-11-15 00:22:00,
2013-11-14 19:23:00,59.7,47.9,30.27,NNE,22,1.2,1.4,65,0.00,CLR,,0.00,WeatherDisplay:10.37,2013-11-15 00:23:00,
2013-11-14 19:24:00,59.7,47.5,30.27,NNE,22,3.6,3.6,64,0.00,CLR,,0.00,WeatherDisplay:10.37,2013-11-15 00:24:00,
2013-11-14 19:26:00,59.7,47.9,30.27,NNW,338,2.3,2.3,65,0.00,CLR,,0.00,WeatherDisplay:10.37,2013-11-15 00:26:00,
2013-11-14 19:27:00,59.5,47.8,30.27,North,0,3.1,3.1,65,0.00,CLR,,0.00,WeatherDisplay:10.37,2013-11-15 00:27:00,
2013-11-14 19:28:00,59.5,48.2,30.27,North,0,3.5,3.5,66,0.00,CLR,,0.00,WeatherDisplay:10.37,2013-11-15 00:28:00,
2013-11-14 19:29:00,59.5,48.2,30.27,North,0,2.6,2.6,66,0.00,CLR,,0.00,WeatherDisplay:10.37,2013-11-15 00:29:00,
2013-11-14 19:31:00,59.4,48.0,30.27,North,0,3.5,3.5,66,0.00,CLR,,0.00,WeatherDisplay:10.37,2013-11-15 00:31:00,
2013-11-14 19:32:00,59.4,48.0,30.27,North,0,2.4,2.4,66,0.00,CLR,,0.00,WeatherDisplay:10.37,2013-11-15 00:32:00,
2013-11-14 19:33:00,59.4,48.0,30.27,North,0,3.5,3.5,66,0.00,CLR,,0.00,WeatherDisplay:10.37,2013-11-15 00:33:00,
2013-11-14 19:34:00,59.4,48.4,30.27,North,0,4.9,4.9,67,0.00,CLR,,0.00,WeatherDisplay:10.37,2013-11-15 00:34:00,
2013-11-14 19:36:00,59.4,48.8,30.27,North,0,4.6,4.6,68,0.00,CLR,,0.00,WeatherDisplay:10.37,2013-11-15 00:36:00,
2013-11-14 19:37:00,59.4,48.8,30.27,North,0,4.6,4.6,68,0.00,CLR,,0.00,WeatherDisplay:10.37,2013-11-15 00:37:00,
2013-11-14 19:38:00,59.2,48.2,30.27,NNW,338,3.5,3.5,67,0.00,CLR,,0.00,WeatherDisplay:10.37,2013-11-15 00:38:00,
2013-11-14 19:39:00,59.2,48.2,30.27,North,0,2.3,2.3,67,0.00,CLR,,0.00,WeatherDisplay:10.37,2013-11-15 00:39:00,
2013-11-14 19:40:00,59.0,48.1,30.27,North,0,2.4,2.4,67,0.00,CLR,,0.00,WeatherDisplay:10.37,2013-11-15 00:40:00,
2013-11-14 19:41:00,59.0,48.1,30.27,North,0,3.5,3.5,67,0.00,CLR,,0.00,WeatherDisplay:10.37,2013-11-15 00:41:00,
2013-11-14 19:42:00,59.0,48.1,30.27,North,0,3.3,3.3,67,0.00,CLR,,0.00,WeatherDisplay:10.37,2013-11-15 00:42:00,
2013-11-14 19:44:00,58.8,48.3,30.27,North,0,2.3,2.9,68,0.00,CLR,,0.00,WeatherDisplay:10.37,2013-11-15 00:44:00,
2013-11-14 19:45:00,58.8,48.3,30.27,NNW,338,2.4,2.9,68,0.00,CLR,,0.00,WeatherDisplay:10.37,2013-11-15 00:45:00,
2013-11-14 19:46:00,58.8,48.3,30.27,North,0,2.3,2.9,68,0.00,CLR,,0.00,WeatherDisplay:10.37,2013-11-15 00:46:00,
2013-11-14 19:47:00,58.8,48.3,30.27,North,0,2.9,2.9,68,0.00,CLR,,0.00,WeatherDisplay:10.37,2013-11-15 00:47:00,
2013-11-14 19:48:00,58.8,48.3,30.27,North,0,3.6,3.6,68,0.00,CLR,,0.00,WeatherDisplay:10.37,2013-11-15 00:48:00,
2013-11-14 19:49:00,58.6,48.1,30.27,North,0,2.3,2.4,68,0.00,CLR,,0.00,WeatherDisplay:10.37,2013-11-15 00:49:00,
2013-11-14 19:50:00,58.6,48.1,30.27,North,0,2.3,2.4,68,0.00,CLR,,0.00,WeatherDisplay:10.37,2013-11-15 00:50:00,
2013-11-14 19:52:00,58.5,47.9,30.27,NW,315,2.4,2.4,68,0.00,CLR,,0.00,WeatherDisplay:10.37,2013-11-15 00:52:00,
2013-11-14 19:53:00,58.5,47.9,30.27,North,0,2.6,2.6,68,0.00,CLR,,0.00,WeatherDisplay:10.37,2013-11-15 00:53:00,
2013-11-14 19:54:00,58.5,47.9,30.27,NW,315,1.6,2.4,68,0.00,CLR,,0.00,WeatherDisplay:10.37,2013-11-15 00:54:00,
2013-11-14 19:55:00,58.5,47.9,30.27,NW,315,1.6,2.4,68,0.00,CLR,,0.00,WeatherDisplay:10.37,2013-11-15 00:55:00,
2013-11-14 19:57:00,58.3,48.2,30.27,NNW,338,2.6,2.6,69,0.00,CLR,,0.00,WeatherDisplay:10.37,2013-11-15 00:57:00,
2013-11-14 19:58:00,58.3,48.2,30.27,NNW,338,2.3,2.3,69,0.00,CLR,,0.00,WeatherDisplay:10.37,2013-11-15 00:58:00,
2013-11-14 20:00:00,58.3,48.2,30.27,NNW,338,2.6,2.6,69,0.00,CLR,,0.00,WeatherDisplay:10.37,2013-11-15 01:00:00,
2013-11-14 20:02:00,58.1,48.0,30.27,North,0,2.9,2.9,69,0.00,CLR,,0.00,WeatherDisplay:10.37,2013-11-15 01:02:00,
2013-11-14 20:03:00,58.1,48.0,30.27,NW,315,2.3,2.3,69,0.00,CLR,,0.00,WeatherDisplay:10.37,2013-11-15 01:03:00,
2013-11-14 20:04:00,58.1,48.0,30.27,NNW,338,2.3,2.3,69,0.00,CLR,,0.00,WeatherDisplay:10.37,2013-11-15 01:04:00,
2013-11-14 20:05:00,58.1,48.0,30.27,NNW,338,2.3,2.3,69,0.00,CLR,,0.00,WeatherDisplay:10.37,2013-11-15 01:05:00,
2013-11-14 20:08:00,57.9,47.8,30.27,North,0,2.0,2.0,69,0.00,CLR,,0.00,WeatherDisplay:10.37,2013-11-15 01:08:00,
2013-11-14 20:09:00,57.7,48.0,30.27,NNE,22,2.4,2.4,70,0.00,CLR,,0.00,WeatherDisplay:10.37,2013-11-15 01:09:00,
2013-11-14 20:10:00,57.7,48.0,30.27,North,0,2.3,2.3,70,0.00,CLR,,0.00,WeatherDisplay:10.37,2013-11-15 01:10:00,
2013-11-14 20:11:00,57.7,48.0,30.27,NNW,338,2.6,2.6,70,0.00,CLR,,0.00,WeatherDisplay:10.37,2013-11-15 01:11:00,
2013-11-14 20:13:00,57.7,48.0,30.27,NNW,338,1.2,1.4,70,0.00,CLR,,0.00,WeatherDisplay:10.37,2013-11-15 01:13:00,
2013-11-14 20:15:00,57.6,47.8,30.27,NNW,338,1.6,1.6,70,0.00,CLR,,0.00,WeatherDisplay:10.37,2013-11-15 01:15:00,
2013-11-14 20:16:00,57.6,47.8,30.27,NNW,338,1.2,1.6,70,0.00,CLR,,0.00,WeatherDisplay:10.37,2013-11-15 01:16:00,
2013-11-14 20:18:00,57.6,47.8,30.27,NW,315,3.5,3.5,70,0.00,CLR,,0.00,WeatherDisplay:10.37,2013-11-15 01:18:00,
2013-11-14 20:21:00,57.4,47.7,30.27,NW,315,1.2,1.4,70,0.00,CLR,,0.00,WeatherDisplay:10.37,2013-11-15 01:21:00,
2013-11-14 20:22:00,57.4,47.7,30.27,NW,315,1.4,1.4,70,0.00,CLR,,0.00,WeatherDisplay:10.37,2013-11-15 01:22:00,
2013-11-14 20:23:00,57.4,47.7,30.27,NW,315,2.4,2.4,70,0.00,CLR,,0.00,WeatherDisplay:10.37,2013-11-15 01:23:00,
2013-11-14 20:26:00,57.2,47.9,30.27,North,0,1.4,2.0,71,0.00,CLR,,0.00,WeatherDisplay:10.37,2013-11-15 01:26:00,
2013-11-14 20:27:00,57.2,47.9,30.27,NW,315,2.3,2.3,71,0.00,CLR,,0.00,WeatherDisplay:10.37,2013-11-15 01:27:00,
2013-11-14 20:28:00,57.2,47.9,30.27,NNW,338,2.3,2.3,71,0.00,CLR,,0.00,WeatherDisplay:10.37,2013-11-15 01:28:00,
2013-11-14 20:29:00,57.2,47.9,30.27,NW,315,2.4,2.4,71,0.00,CLR,,0.00,WeatherDisplay:10.37,2013-11-15 01:29:00,
2013-11-14 20:31:00,57.2,48.3,30.27,NNW,338,2.0,2.0,72,0.00,CLR,,0.00,WeatherDisplay:10.37,2013-11-15 01:31:00,
2013-11-14 20:32:00,57.2,48.3,30.27,NW,315,2.6,2.6,72,0.00,CLR,,0.00,WeatherDisplay:10.37,2013-11-15 01:32:00,
2013-11-14 20:34:00,57.0,48.1,30.27,West,270,0.0,1.4,72,0.00,CLR,,0.00,WeatherDisplay:10.37,2013-11-15 01:34:00,
2013-11-14 20:36:00,56.8,47.9,30.27,NW,315,1.4,1.4,72,0.00,CLR,,0.00,WeatherDisplay:10.37,2013-11-15 01:36:00,
2013-11-14 20:37:00,56.8,47.9,30.27,NW,315,1.2,1.4,72,0.00,CLR,,0.00,WeatherDisplay:10.37,2013-11-15 01:37:00,
2013-11-14 20:39:00,56.7,47.7,30.27,NW,315,1.4,1.4,72,0.00,CLR,,0.00,WeatherDisplay:10.37,2013-11-15 01:39:00,
2013-11-14 20:41:00,56.7,47.7,30.27,North,0,1.2,1.2,72,0.00,CLR,,0.00,WeatherDisplay:10.37,2013-11-15 01:41:00,
2013-11-14 20:42:00,56.7,47.7,30.27,North,0,1.2,1.2,72,0.00,CLR,,0.00,WeatherDisplay:10.37,2013-11-15 01:42:00,
2013-11-14 20:43:00,56.7,47.7,30.27,West,270,2.9,2.9,72,0.00,CLR,,0.00,WeatherDisplay:10.37,2013-11-15 01:43:00,
2013-11-14 20:45:00,56.7,48.1,30.27,WNW,292,3.1,3.1,73,0.00,CLR,,0.00,WeatherDisplay:10.37,2013-11-15 01:45:00,
2013-11-14 20:47:00,56.7,48.1,30.27,NW,315,2.3,0.0,73,0.00,CLR,,0.00,WeatherDisplay:10.37,2013-11-15 01:47:00,
2013-11-14 20:48:00,56.7,48.1,30.27,NW,315,2.3,2.3,73,0.00,CLR,,0.00,WeatherDisplay:10.37,2013-11-15 01:48:00,
2013-11-14 20:50:00,56.7,48.1,30.27,NW,315,0.0,1.6,73,0.00,CLR,,0.00,WeatherDisplay:10.37,2013-11-15 01:50:00,
2013-11-14 20:52:00,56.5,47.9,30.27,NNW,338,1.4,1.6,73,0.00,CLR,,0.00,WeatherDisplay:10.37,2013-11-15 01:52:00,
2013-11-14 20:53:00,56.5,47.9,30.27,NW,315,2.3,2.3,73,0.00,CLR,,0.00,WeatherDisplay:10.37,2013-11-15 01:53:00,
2013-11-14 20:55:00,56.5,48.3,30.27,NNW,338,3.1,3.1,74,0.00,CLR,,0.00,WeatherDisplay:10.37,2013-11-15 01:55:00,
2013-11-14 20:57:00,56.5,48.3,30.27,NNW,338,2.3,2.3,74,0.00,CLR,,0.00,WeatherDisplay:10.37,2013-11-15 01:57:00,
2013-11-14 20:58:00,56.5,48.3,30.27,NW,315,2.2,2.2,74,0.00,CLR,,0.00,WeatherDisplay:10.37,2013-11-15 01:58:00,
2013-11-14 21:01:00,56.3,48.5,30.27,NNW,338,2.3,2.3,75,0.00,CLR,,0.00,WeatherDisplay:10.37,2013-11-15 02:01:00,
2013-11-14 21:02:00,56.3,48.5,30.27,NNW,338,4.7,4.7,75,0.00,CLR,,0.00,WeatherDisplay:10.37,2013-11-15 02:02:00,
2013-11-14 21:03:00,56.5,49.0,30.27,North,0,4.6,4.6,76,0.00,CLR,,0.00,WeatherDisplay:10.37,2013-11-15 02:03:00,
2013-11-14 21:06:00,56.3,48.8,30.27,North,0,2.6,2.6,76,0.00,CLR,,0.00,WeatherDisplay:10.37,2013-11-15 02:06:00,
2013-11-14 21:07:00,56.3,48.8,30.27,NNW,338,2.3,2.3,76,0.00,CLR,,0.00,WeatherDisplay:10.37,2013-11-15 02:07:00,
2013-11-14 21:08:00,56.3,48.8,30.27,NNW,338,2.3,2.3,76,0.00,CLR,,0.00,WeatherDisplay:10.37,2013-11-15 02:08:00,
2013-11-14 21:09:00,56.3,48.8,30.27,NNE,22,2.3,2.3,76,0.00,CLR,,0.00,WeatherDisplay:10.37,2013-11-15 02:09:00,
2013-11-14 21:12:00,56.3,49.2,30.27,NW,315,2.4,2.4,77,0.00,CLR,,0.00,WeatherDisplay:10.37,2013-11-15 02:12:00,
2013-11-14 21:13:00,56.3,49.2,30.27,WNW,292,2.4,2.4,77,0.00,CLR,,0.00,WeatherDisplay:10.37,2013-11-15 02:13:00,
2013-11-14 21:14:00,56.3,49.5,30.27,NW,315,3.5,3.5,78,0.00,CLR,,0.00,WeatherDisplay:10.37,2013-11-15 02:14:00,
2013-11-14 21:17:00,56.3,49.5,30.27,NNE,22,3.6,3.6,78,0.00,CLR,,0.00,WeatherDisplay:10.37,2013-11-15 02:17:00,
2013-11-14 21:18:00,56.3,49.5,30.27,NNE,22,3.6,3.6,78,0.00,CLR,,0.00,WeatherDisplay:10.37,2013-11-15 02:18:00,
2013-11-14 21:19:00,56.3,49.5,30.27,NNW,338,2.0,2.0,78,0.00,CLR,,0.00,WeatherDisplay:10.37,2013-11-15 02:19:00,
2013-11-14 21:20:00,56.3,49.5,30.27,NW,315,1.6,1.6,78,0.00,CLR,,0.00,WeatherDisplay:10.37,2013-11-15 02:20:00,
2013-11-14 21:23:00,56.1,49.4,30.27,NNW,338,1.2,1.6,78,0.00,CLR,,0.00,WeatherDisplay:10.37,2013-11-15 02:23:00,
2013-11-14 21:24:00,56.1,49.4,30.27,NNW,338,3.3,3.3,78,0.00,CLR,,0.00,WeatherDisplay:10.37,2013-11-15 02:24:00,
2013-11-14 21:25:00,56.1,49.4,30.27,NW,315,1.4,2.2,78,0.00,CLR,,0.00,WeatherDisplay:10.37,2013-11-15 02:25:00,
2013-11-14 21:26:00,56.1,49.4,30.27,NW,315,3.6,3.6,78,0.00,CLR,,0.00,WeatherDisplay:10.37,2013-11-15 02:26:00,
2013-11-14 21:28:00,56.1,49.7,30.27,NNW,338,1.6,2.2,79,0.00,CLR,,0.00,WeatherDisplay:10.37,2013-11-15 02:28:00,
2013-11-14 21:29:00,56.3,49.9,30.27,NNW,338,2.3,2.6,79,0.00,CLR,,0.00,WeatherDisplay:10.37,2013-11-15 02:29:00,
2013-11-14 21:30:00,56.3,49.9,30.27,North,0,2.9,2.9,79,0.00,CLR,,0.00,WeatherDisplay:10.37,2013-11-15 02:30:00,
2013-11-14 21:32:00,56.1,49.7,30.27,WNW,292,2.4,2.4,79,0.00,CLR,,0.00,WeatherDisplay:10.37,2013-11-15 02:32:00,
2013-11-14 21:33:00,56.1,49.7,30.27,NNE,22,2.3,2.3,79,0.00,CLR,,0.00,WeatherDisplay:10.37,2013-11-15 02:33:00,
2013-11-14 21:34:00,56.1,50.0,30.27,NW,315,2.4,2.4,80,0.00,CLR,,0.00,WeatherDisplay:10.37,2013-11-15 02:34:00,
2013-11-14 21:36:00,56.1,50.0,30.27,North,0,2.3,2.3,80,0.00,CLR,,0.00,WeatherDisplay:10.37,2013-11-15 02:36:00,
2013-11-14 21:37:00,56.1,50.0,30.27,NNW,338,1.2,2.2,80,0.00,CLR,,0.00,WeatherDisplay:10.37,2013-11-15 02:37:00,
2013-11-14 21:38:00,56.1,50.0,30.27,NW,315,2.6,2.6,80,0.00,CLR,,0.00,WeatherDisplay:10.37,2013-11-15 02:38:00,
2013-11-14 21:39:00,56.1,50.0,30.27,NW,315,1.4,2.0,80,0.00,CLR,,0.00,WeatherDisplay:10.37,2013-11-15 02:39:00,
2013-11-14 21:42:00,56.1,50.4,30.27,NNW,338,3.5,3.5,81,0.00,CLR,,0.00,WeatherDisplay:10.37,2013-11-15 02:42:00,
2013-11-14 21:43:00,56.1,50.4,30.27,North,0,2.4,2.4,81,0.00,CLR,,0.00,WeatherDisplay:10.37,2013-11-15 02:43:00,
2013-11-14 21:44:00,56.1,50.4,30.24,NNW,338,1.2,2.0,81,0.00,CLR,,0.00,WeatherDisplay:10.37,2013-11-15 02:44:00,
2013-11-14 21:45:00,56.1,50.4,30.24,NNW,338,2.4,2.4,81,0.00,CLR,,0.00,WeatherDisplay:10.37,2013-11-15 02:45:00,
2013-11-14 21:47:00,56.1,50.4,30.24,NNW,338,2.0,2.2,81,0.00,CLR,,0.00,WeatherDisplay:10.37,2013-11-15 02:47:00,
2013-11-14 21:48:00,56.1,50.4,30.24,North,0,2.0,2.0,81,0.00,CLR,,0.00,WeatherDisplay:10.37,2013-11-15 02:48:00,
2013-11-14 21:49:00,56.1,50.4,30.24,North,0,4.0,4.0,81,0.00,CLR,,0.00,WeatherDisplay:10.37,2013-11-15 02:49:00,
2013-11-14 21:50:00,56.1,50.4,30.24,NNW,338,1.6,2.2,81,0.00,CLR,,0.00,WeatherDisplay:10.37,2013-11-15 02:50:00,
2013-11-14 21:52:00,56.1,50.7,30.24,North,0,2.6,2.6,82,0.00,CLR,,0.00,WeatherDisplay:10.37,2013-11-15 02:52:00,
2013-11-14 21:53:00,56.1,50.7,30.24,North,0,3.8,3.8,82,0.00,CLR,,0.00,WeatherDisplay:10.37,2013-11-15 02:53:00,
2013-11-14 21:54:00,56.1,50.7,30.24,NW,315,3.5,3.5,82,0.00,CLR,,0.00,WeatherDisplay:10.37,2013-11-15 02:54:00,
2013-11-14 21:55:00,56.1,50.7,30.24,NNE,22,2.3,2.4,82,0.00,CLR,,0.00,WeatherDisplay:10.37,2013-11-15 02:55:00,
2013-11-14 21:56:00,56.1,50.7,30.24,NNW,338,1.2,1.4,82,0.00,CLR,,0.00,WeatherDisplay:10.37,2013-11-15 02:56:00,
2013-11-14 21:58:00,55.9,50.5,30.24,NNW,338,4.0,4.0,82,0.00,CLR,,0.00,WeatherDisplay:10.37,2013-11-15 02:58:00,
2013-11-14 21:59:00,56.1,50.7,30.27,NNW,338,2.4,2.9,82,0.00,CLR,,0.00,WeatherDisplay:10.37,2013-11-15 02:59:00,
2013-11-14 22:00:00,55.9,50.5,30.27,NNW,338,2.3,2.3,82,0.00,CLR,,0.00,WeatherDisplay:10.37,2013-11-15 03:00:00,
2013-11-14 22:01:00,55.9,50.5,30.27,North,0,3.1,3.1,82,0.00,CLR,,0.00,WeatherDisplay:10.37,2013-11-15 03:01:00,
2013-11-14 22:04:00,55.9,50.5,30.27,NNW,338,2.3,2.3,82,0.00,CLR,,0.00,WeatherDisplay:10.37,2013-11-15 03:04:00,
2013-11-14 22:06:00,55.9,50.5,30.27,NNW,338,2.3,2.3,82,0.00,CLR,,0.00,WeatherDisplay:10.37,2013-11-15 03:06:00,
2013-11-14 22:09:00,55.9,50.5,30.27,NW,315,2.2,2.2,82,0.00,CLR,,0.00,WeatherDisplay:10.37,2013-11-15 03:09:00,
2013-11-14 22:10:00,55.9,50.5,30.27,NW,315,2.3,2.3,82,0.00,CLR,,0.00,WeatherDisplay:10.37,2013-11-15 03:10:00,
2013-11-14 22:11:00,55.9,50.5,30.27,NNE,22,1.4,1.4,82,0.00,CLR,,0.00,WeatherDisplay:10.37,2013-11-15 03:11:00,
2013-11-14 22:12:00,55.9,50.5,30.27,NNE,22,2.4,2.4,82,0.00,CLR,,0.00,WeatherDisplay:10.37,2013-11-15 03:12:00,
2013-11-14 22:15:00,55.9,50.5,30.24,NNW,338,1.2,1.2,82,0.00,CLR,,0.00,WeatherDisplay:10.37,2013-11-15 03:15:00,
2013-11-14 22:16:00,55.9,50.5,30.24,NNW,338,0.0,0.0,82,0.00,CLR,,0.00,WeatherDisplay:10.37,2013-11-15 03:16:00,
2013-11-14 22:17:00,55.9,50.5,30.24,NNW,338,2.0,0.0,82,0.00,CLR,,0.00,WeatherDisplay:10.37,2013-11-15 03:17:00,
2013-11-14 22:20:00,55.9,50.5,30.24,North,0,2.3,2.3,82,0.00,CLR,,0.00,WeatherDisplay:10.37,2013-11-15 03:20:00,
2013-11-14 22:22:00,55.9,50.5,30.24,NNW,338,2.3,2.3,82,0.00,CLR,,0.00,WeatherDisplay:10.37,2013-11-15 03:22:00,
2013-11-14 22:23:00,55.9,50.5,30.24,NNW,338,1.4,1.4,82,0.00,CLR,,0.00,WeatherDisplay:10.37,2013-11-15 03:23:00,
2013-11-14 22:25:00,55.8,50.3,30.24,NNW,338,2.3,2.3,82,0.00,CLR,,0.00,WeatherDisplay:10.37,2013-11-15 03:25:00,
2013-11-14 22:27:00,55.8,50.3,30.24,NNE,22,2.4,2.4,82,0.00,CLR,,0.00,WeatherDisplay:10.37,2013-11-15 03:27:00,
2013-11-14 22:28:00,55.8,50.3,30.24,North,0,3.5,3.5,82,0.00,CLR,,0.00,WeatherDisplay:10.37,2013-11-15 03:28:00,
2013-11-14 22:30:00,55.8,50.7,30.27,North,0,2.3,2.3,83,0.00,CLR,,0.00,WeatherDisplay:10.37,2013-11-15 03:30:00,
2013-11-14 22:31:00,55.8,50.7,30.27,North,0,2.3,2.3,83,0.00,CLR,,0.00,WeatherDisplay:10.37,2013-11-15 03:31:00,
2013-11-14 22:32:00,55.8,50.7,30.27,NNW,338,2.3,2.3,83,0.00,CLR,,0.00,WeatherDisplay:10.37,2013-11-15 03:32:00,
2013-11-14 22:34:00,55.8,50.7,30.27,NNW,338,3.8,3.8,83,0.00,CLR,,0.00,WeatherDisplay:10.37,2013-11-15 03:34:00,
2013-11-14 22:35:00,55.8,50.7,30.27,NNW,338,1.6,3.1,83,0.00,CLR,,0.00,WeatherDisplay:10.37,2013-11-15 03:35:00,
2013-11-14 22:36:00,55.8,50.7,30.27,NNW,338,1.6,3.1,83,0.00,CLR,,0.00,WeatherDisplay:10.37,2013-11-15 03:36:00,
2013-11-14 22:37:00,55.8,50.7,30.27,NW,315,1.2,1.2,83,0.00,CLR,,0.00,WeatherDisplay:10.37,2013-11-15 03:37:00,
2013-11-14 22:39:00,55.8,50.7,30.27,NNW,338,2.0,2.0,83,0.00,CLR,,0.00,WeatherDisplay:10.37,2013-11-15 03:39:00,
2013-11-14 22:41:00,55.6,50.5,30.27,NNW,338,2.6,2.6,83,0.00,CLR,,0.00,WeatherDisplay:10.37,2013-11-15 03:41:00,
2013-11-14 22:42:00,55.6,50.5,30.27,NW,315,3.1,3.1,83,0.00,CLR,,0.00,WeatherDisplay:10.37,2013-11-15 03:42:00,
2013-11-14 22:45:00,55.6,50.5,30.27,NNW,338,2.0,0.0,83,0.00,CLR,,0.00,WeatherDisplay:10.37,2013-11-15 03:45:00,
2013-11-14 22:46:00,55.6,50.5,30.27,NNW,338,0.0,0.0,83,0.00,CLR,,0.00,WeatherDisplay:10.37,2013-11-15 03:46:00,
2013-11-14 22:47:00,55.4,50.3,30.27,NW,315,1.4,0.0,83,0.00,CLR,,0.00,WeatherDisplay:10.37,2013-11-15 03:47:00,
2013-11-14 22:48:00,55.4,50.3,30.27,NW,315,1.2,0.0,83,0.00,CLR,,0.00,WeatherDisplay:10.37,2013-11-15 03:48:00,
2013-11-14 22:50:00,55.4,50.3,30.27,NW,315,1.4,1.6,83,0.00,CLR,,0.00,WeatherDisplay:10.37,2013-11-15 03:50:00,
2013-11-14 22:51:00,55.4,50.3,30.27,WNW,292,2.3,2.3,83,0.00,CLR,,0.00,WeatherDisplay:10.37,2013-11-15 03:51:00,
2013-11-14 22:52:00,55.4,50.3,30.27,North,0,2.3,2.3,83,0.00,CLR,,0.00,WeatherDisplay:10.37,2013-11-15 03:52:00,
2013-11-14 22:53:00,55.4,50.3,30.27,NW,315,1.2,1.4,83,0.00,CLR,,0.00,WeatherDisplay:10.37,2013-11-15 03:53:00,
2013-11-14 22:55:00,55.4,50.3,30.27,NNW,338,1.2,2.0,83,0.00,CLR,,0.00,WeatherDisplay:10.37,2013-11-15 03:55:00,
2013-11-14 22:56:00,55.4,50.3,30.27,North,0,2.3,0.0,83,0.00,CLR,,0.00,WeatherDisplay:10.37,2013-11-15 03:56:00,
2013-11-14 22:57:00,55.4,50.3,30.27,North,0,2.3,2.3,83,0.00,CLR,,0.00,WeatherDisplay:10.37,2013-11-15 03:57:00,
2013-11-14 22:58:00,55.4,50.3,30.27,NNW,338,1.4,0.0,83,0.00,CLR,,0.00,WeatherDisplay:10.37,2013-11-15 03:58:00,
2013-11-14 23:00:00,55.4,50.3,30.30,North,0,1.4,1.4,83,0.00,CLR,,0.00,WeatherDisplay:10.37,2013-11-15 04:00:00,
2013-11-14 23:02:00,55.4,50.3,30.30,NNW,338,2.3,2.3,83,0.00,CLR,,0.00,WeatherDisplay:10.37,2013-11-15 04:02:00,
2013-11-14 23:03:00,55.4,50.3,30.30,NW,315,3.5,3.5,83,0.00,CLR,,0.00,WeatherDisplay:10.37,2013-11-15 04:03:00,
2013-11-14 23:04:00,55.4,50.3,30.30,NNW,338,3.5,3.5,83,0.00,CLR,,0.00,WeatherDisplay:10.37,2013-11-15 04:04:00,
2013-11-14 23:06:00,55.4,50.3,30.30,NNW,338,2.4,2.4,83,0.00,CLR,,0.00,WeatherDisplay:10.37,2013-11-15 04:06:00,
2013-11-14 23:07:00,55.4,50.3,30.30,NNW,338,1.6,1.6,83,0.00,CLR,,0.00,WeatherDisplay:10.37,2013-11-15 04:07:00,
2013-11-14 23:08:00,55.2,50.5,30.30,NW,315,2.2,0.0,84,0.00,CLR,,0.00,WeatherDisplay:10.37,2013-11-15 04:08:00,
2013-11-14 23:09:00,55.2,50.5,30.30,North,0,1.2,1.2,84,0.00,CLR,,0.00,WeatherDisplay:10.37,2013-11-15 04:09:00,
2013-11-14 23:11:00,55.2,50.5,30.30,NNW,338,2.4,2.4,84,0.00,CLR,,0.00,WeatherDisplay:10.37,2013-11-15 04:11:00,
2013-11-14 23:12:00,55.2,50.5,30.30,NNW,338,2.3,2.3,84,0.00,CLR,,0.00,WeatherDisplay:10.37,2013-11-15 04:12:00,
2013-11-14 23:13:00,55.2,50.5,30.30,NNW,338,2.4,2.4,84,0.00,CLR,,0.00,WeatherDisplay:10.37,2013-11-15 04:13:00,
2013-11-14 23:14:00,55.2,50.5,30.27,NNW,338,2.3,2.3,84,0.00,CLR,,0.00,WeatherDisplay:10.37,2013-11-15 04:14:00,
2013-11-14 23:16:00,55.0,50.3,30.27,NNW,338,1.2,1.4,84,0.00,CLR,,0.00,WeatherDisplay:10.37,2013-11-15 04:16:00,
2013-11-14 23:18:00,55.0,50.0,30.27,North,0,1.6,1.6,83,0.00,CLR,,0.00,WeatherDisplay:10.37,2013-11-15 04:18:00,
2013-11-14 23:19:00,55.0,50.0,30.27,NW,315,1.2,1.2,83,0.00,CLR,,0.00,WeatherDisplay:10.37,2013-11-15 04:19:00,
2013-11-14 23:21:00,54.9,49.8,30.27,NNE,22,1.2,1.2,83,0.00,CLR,,0.00,WeatherDisplay:10.37,2013-11-15 04:21:00,
2013-11-14 23:23:00,54.9,49.8,30.27,NNW,338,0.0,0.9,83,0.00,CLR,,0.00,WeatherDisplay:10.37,2013-11-15 04:23:00,
2013-11-14 23:24:00,54.9,49.8,30.27,NNW,338,1.2,1.2,83,0.00,CLR,,0.00,WeatherDisplay:10.37,2013-11-15 04:24:00,
2013-11-14 23:27:00,54.7,49.6,30.27,NNW,338,1.6,1.6,83,0.00,CLR,,0.00,WeatherDisplay:10.37,2013-11-15 04:27:00,
2013-11-14 23:28:00,54.7,49.6,30.27,NNE,22,2.0,2.0,83,0.00,CLR,,0.00,WeatherDisplay:10.37,2013-11-15 04:28:00,
2013-11-14 23:29:00,54.9,49.8,30.27,NNW,338,2.0,2.0,83,0.00,CLR,,0.00,WeatherDisplay:10.37,2013-11-15 04:29:00,
2013-11-14 23:32:00,54.7,49.9,30.27,NNW,338,2.4,2.4,84,0.00,CLR,,0.00,WeatherDisplay:10.37,2013-11-15 04:32:00,
2013-11-14 23:33:00,54.7,49.9,30.27,North,0,2.3,2.3,84,0.00,CLR,,0.00,WeatherDisplay:10.37,2013-11-15 04:33:00,
2013-11-14 23:34:00,54.7,49.9,30.27,NNE,22,2.3,2.3,84,0.00,CLR,,0.00,WeatherDisplay:10.37,2013-11-15 04:34:00,
2013-11-14 23:35:00,54.7,49.9,30.27,NNE,22,2.3,2.3,84,0.00,CLR,,0.00,WeatherDisplay:10.37,2013-11-15 04:35:00,
2013-11-14 23:38:00,54.5,49.8,30.27,North,0,2.3,2.3,84,0.00,CLR,,0.00,WeatherDisplay:10.37,2013-11-15 04:38:00,
2013-11-14 23:39:00,54.5,49.8,30.27,North,0,1.2,1.2,84,0.00,CLR,,0.00,WeatherDisplay:10.37,2013-11-15 04:39:00,
2013-11-14 23:40:00,54.5,49.8,30.27,NNE,14,1.0,3.0,84,0.00,CLR,CLR,0.00,WeatherDisplay:10.37,2013-11-15 04:40:00,
2013-11-14 23:43:00,54.5,49.8,30.27,NW,315,1.2,1.2,84,0.00,CLR,,0.00,WeatherDisplay:10.37,2013-11-15 04:43:00,
2013-11-14 23:44:00,54.5,49.8,30.27,NW,315,1.2,0.0,84,0.00,CLR,,0.00,WeatherDisplay:10.37,2013-11-15 04:44:00,
2013-11-14 23:45:00,54.5,49.8,30.27,NW,315,1.4,0.0,84,0.00,CLR,,0.00,WeatherDisplay:10.37,2013-11-15 04:45:00,
2013-11-14 23:48:00,54.3,49.6,30.27,NNW,338,1.2,1.2,84,0.00,CLR,,0.00,WeatherDisplay:10.37,2013-11-15 04:48:00,
2013-11-14 23:49:00,54.3,49.6,30.27,NNW,338,1.2,1.2,84,0.00,CLR,,0.00,WeatherDisplay:10.37,2013-11-15 04:49:00,
2013-11-14 23:50:00,54.3,49.6,30.27,NNW,338,0.0,0.0,84,0.00,CLR,,0.00,WeatherDisplay:10.37,2013-11-15 04:50:00,
2013-11-14 23:53:00,54.3,49.6,30.27,NNW,338,1.2,1.2,84,0.00,CLR,,0.00,WeatherDisplay:10.37,2013-11-15 04:53:00,
2013-11-14 23:54:00,54.3,49.6,30.27,NNW,338,1.2,1.2,84,0.00,CLR,,0.00,WeatherDisplay:10.37,2013-11-15 04:54:00,
2013-11-14 23:55:00,54.3,49.6,30.27,NNW,338,0.0,1.2,84,0.00,CLR,,0.00,WeatherDisplay:10.37,2013-11-15 04:55:00,
2013-11-14 23:58:00,54.3,49.6,30.24,NNW,338,0.0,0.0,84,0.00,CLR,,0.00,WeatherDisplay:10.37,2013-11-15 04:58:00,
2013-11-14 23:59:00,54.3,49.6,30.24,NNW,338,0.0,0.0,84,0.00,CLR,,0.00,WeatherDisplay:10.37,2013-11-15 04:59:00,